<?xml version="1.0" encoding="UTF-8" standalone="no" ?>
<gpx xmlns="http://www.topografix.com/GPX/1/1" xmlns:xsi="http://www.w3.org/2001/XMLSchema-instance" xsi:schemaLocation="http://www.topografix.com/GPX/1/1 http://www.topografix.com/GPX/1/1/gpx.xsd" version="1.1" creator="VisuGPX - https://www.visugpx.com">
  <metadata>
    <name>2015-04-30 08:46</name>
    <desc><![CDATA[
ravin du Joncas  depuis arboras   en passant par le grotte des fées et le mas Nègre]]></desc>
  </metadata>
  <wpt lat="43.71217" lon="3.4945">
    <ele>274.69</ele>
    <name><![CDATA[0000090]]></name>
    <desc><![CDATA[]]></desc>
    <type><![CDATA[Point de départ]]></type>
  </wpt>
  <wpt lat="43.71193" lon="3.49378">
    <ele>293.74</ele>
    <name><![CDATA[0000091]]></name>
    <desc><![CDATA[<br /><h3>Nom: Segment 1</h3><br /><p>Temps de départ: 04/30/2015 08:47</p><p>Temps d'arrivée: 04/30/2015 15:21</p><p>Distance: 17,8km (06:34)</p><p>Temps déplacement: 03:58</p><p>Vitesse moyenne: 2,7km/h</p><p>Vitesse moyenne: 4,4km/h</p><p>Vitess Max.: 8km/h</p><p>Altitude minimale: 224m</p><p>Altitude maximale: 569m</p><p>Vitesse d'élévation: 205,8m/h</p><p>Vitesse de descente: -283,4m/h</p><p>Gain Altitude: 744m</p><p>Perte Altitude: -725m</p><p>Temps d'élévation: 03:36</p><p>Temps de descente: 02:33</p>]]></desc>
    <type><![CDATA[Point d'arrivée]]></type>
  </wpt>
  <trk>
    <name><![CDATA[2015-04-30 08:46]]></name>
    <desc><![CDATA[<h1>OruxMaps</h1><br /><hr align="center" width="480" style="height: 2px; width: 517px"/><h2>Nom: 2015-04-30 08:46</h2><br /><p>Temps de départ: 04/30/2015 08:47</p><p>Temps d'arrivée: 04/30/2015 15:21</p><p>Distance: 17,8km (06:34)</p><p>Temps déplacement: 04:03</p><p>Vitesse moyenne: 2,7km/h</p><p>Vitesse moyenne: 4,4km/h</p><p>Vitess Max.: 8km/h</p><p>Altitude minimale: 224m</p><p>Altitude maximale: 569m</p><p>Vitesse d'élévation: 205,8m/h</p><p>Vitesse de descente: -283,4m/h</p><p>Gain Altitude: 744m</p><p>Perte Altitude: -725m</p><p>Temps d'élévation: 03:36</p><p>Temps de descente: 02:33</p><hr align="center" width="480" style="height: 2px; width: 517px"/>]]></desc>
    <trkseg>
      <trkpt lat="43.71217" lon="3.4945">
        <ele>274.69</ele>
        <time>2015-04-30T06:47:08Z</time>
      </trkpt>
      <trkpt lat="43.71218" lon="3.49476">
        <ele>265.9</ele>
        <time>2015-04-30T06:47:19Z</time>
      </trkpt>
      <trkpt lat="43.71228" lon="3.49498">
        <ele>273.69</ele>
        <time>2015-04-30T06:47:36Z</time>
      </trkpt>
      <trkpt lat="43.71233" lon="3.49522">
        <ele>275.57</ele>
        <time>2015-04-30T06:47:53Z</time>
      </trkpt>
      <trkpt lat="43.71232" lon="3.49548">
        <ele>272</ele>
        <time>2015-04-30T06:48:09Z</time>
      </trkpt>
      <trkpt lat="43.71225" lon="3.49572">
        <ele>271.19</ele>
        <time>2015-04-30T06:48:25Z</time>
      </trkpt>
      <trkpt lat="43.71232" lon="3.49595">
        <ele>272.61</ele>
        <time>2015-04-30T06:48:43Z</time>
      </trkpt>
      <trkpt lat="43.7125" lon="3.49598">
        <ele>276.5</ele>
        <time>2015-04-30T06:48:59Z</time>
      </trkpt>
      <trkpt lat="43.71267" lon="3.49605">
        <ele>280.13</ele>
        <time>2015-04-30T06:49:16Z</time>
      </trkpt>
      <trkpt lat="43.71284" lon="3.49617">
        <ele>280.72</ele>
        <time>2015-04-30T06:49:33Z</time>
      </trkpt>
      <trkpt lat="43.71301" lon="3.49628">
        <ele>281.69</ele>
        <time>2015-04-30T06:49:50Z</time>
      </trkpt>
      <trkpt lat="43.71318" lon="3.49642">
        <ele>280.91</ele>
        <time>2015-04-30T06:50:06Z</time>
      </trkpt>
      <trkpt lat="43.71331" lon="3.49659">
        <ele>282.66</ele>
        <time>2015-04-30T06:50:21Z</time>
      </trkpt>
      <trkpt lat="43.71349" lon="3.49668">
        <ele>278.92</ele>
        <time>2015-04-30T06:50:38Z</time>
      </trkpt>
      <trkpt lat="43.71368" lon="3.49672">
        <ele>279.43</ele>
        <time>2015-04-30T06:50:53Z</time>
      </trkpt>
      <trkpt lat="43.71386" lon="3.49674">
        <ele>277.2</ele>
        <time>2015-04-30T06:51:08Z</time>
      </trkpt>
      <trkpt lat="43.71402" lon="3.49686">
        <ele>272.88</ele>
        <time>2015-04-30T06:51:24Z</time>
      </trkpt>
      <trkpt lat="43.71407" lon="3.49711">
        <ele>267.97</ele>
        <time>2015-04-30T06:51:41Z</time>
      </trkpt>
      <trkpt lat="43.71404" lon="3.49737">
        <ele>270.06</ele>
        <time>2015-04-30T06:51:54Z</time>
      </trkpt>
      <trkpt lat="43.714" lon="3.49762">
        <ele>270.88</ele>
        <time>2015-04-30T06:52:10Z</time>
      </trkpt>
      <trkpt lat="43.714" lon="3.49788">
        <ele>267.61</ele>
        <time>2015-04-30T06:52:27Z</time>
      </trkpt>
      <trkpt lat="43.71409" lon="3.49811">
        <ele>266.38</ele>
        <time>2015-04-30T06:52:43Z</time>
      </trkpt>
      <trkpt lat="43.71423" lon="3.49827">
        <ele>265.04</ele>
        <time>2015-04-30T06:52:58Z</time>
      </trkpt>
      <trkpt lat="43.71438" lon="3.49843">
        <ele>262.4</ele>
        <time>2015-04-30T06:53:13Z</time>
      </trkpt>
      <trkpt lat="43.71451" lon="3.4986">
        <ele>260.94</ele>
        <time>2015-04-30T06:53:29Z</time>
      </trkpt>
      <trkpt lat="43.71462" lon="3.4988">
        <ele>259.98</ele>
        <time>2015-04-30T06:53:42Z</time>
      </trkpt>
      <trkpt lat="43.71476" lon="3.49896">
        <ele>256.82</ele>
        <time>2015-04-30T06:53:57Z</time>
      </trkpt>
      <trkpt lat="43.71492" lon="3.49907">
        <ele>256.69</ele>
        <time>2015-04-30T06:54:11Z</time>
      </trkpt>
      <trkpt lat="43.71511" lon="3.49909">
        <ele>257.67</ele>
        <time>2015-04-30T06:54:24Z</time>
      </trkpt>
      <trkpt lat="43.71529" lon="3.49899">
        <ele>262.67</ele>
        <time>2015-04-30T06:54:36Z</time>
      </trkpt>
      <trkpt lat="43.71545" lon="3.49886">
        <ele>263.63</ele>
        <time>2015-04-30T06:54:50Z</time>
      </trkpt>
      <trkpt lat="43.71539" lon="3.4991">
        <ele>251.74</ele>
        <time>2015-04-30T06:55:20Z</time>
      </trkpt>
      <trkpt lat="43.7153" lon="3.49932">
        <ele>246.45</ele>
        <time>2015-04-30T06:55:38Z</time>
      </trkpt>
      <trkpt lat="43.71514" lon="3.49947">
        <ele>242.66</ele>
        <time>2015-04-30T06:55:51Z</time>
      </trkpt>
      <trkpt lat="43.71496" lon="3.49955">
        <ele>243.1</ele>
        <time>2015-04-30T06:56:06Z</time>
      </trkpt>
      <trkpt lat="43.7148" lon="3.49965">
        <ele>244.79</ele>
        <time>2015-04-30T06:56:20Z</time>
      </trkpt>
      <trkpt lat="43.71462" lon="3.49974">
        <ele>242.48</ele>
        <time>2015-04-30T06:56:33Z</time>
      </trkpt>
      <trkpt lat="43.71445" lon="3.49983">
        <ele>242.51</ele>
        <time>2015-04-30T06:56:47Z</time>
      </trkpt>
      <trkpt lat="43.71427" lon="3.49984">
        <ele>244.03</ele>
        <time>2015-04-30T06:57:03Z</time>
      </trkpt>
      <trkpt lat="43.71409" lon="3.49989">
        <ele>240.12</ele>
        <time>2015-04-30T06:57:22Z</time>
      </trkpt>
      <trkpt lat="43.71391" lon="3.49989">
        <ele>238.99</ele>
        <time>2015-04-30T06:57:36Z</time>
      </trkpt>
      <trkpt lat="43.71374" lon="3.49994">
        <ele>224.13</ele>
        <time>2015-04-30T06:58:00Z</time>
      </trkpt>
      <trkpt lat="43.71356" lon="3.50004">
        <ele>224.44</ele>
        <time>2015-04-30T06:58:12Z</time>
      </trkpt>
      <trkpt lat="43.71365" lon="3.50027">
        <ele>237.44</ele>
        <time>2015-04-30T06:58:47Z</time>
      </trkpt>
      <trkpt lat="43.71365" lon="3.50052">
        <ele>233.06</ele>
        <time>2015-04-30T06:59:17Z</time>
      </trkpt>
      <trkpt lat="43.71367" lon="3.50077">
        <ele>243.79</ele>
        <time>2015-04-30T06:59:56Z</time>
      </trkpt>
      <trkpt lat="43.71377" lon="3.50099">
        <ele>251.01</ele>
        <time>2015-04-30T07:00:42Z</time>
      </trkpt>
      <trkpt lat="43.7136" lon="3.50089">
        <ele>243.22</ele>
        <time>2015-04-30T07:03:58Z</time>
      </trkpt>
      <trkpt lat="43.71342" lon="3.50086">
        <ele>237.98</ele>
        <time>2015-04-30T07:04:14Z</time>
      </trkpt>
      <trkpt lat="43.71327" lon="3.5007">
        <ele>237.6</ele>
        <time>2015-04-30T07:04:34Z</time>
      </trkpt>
      <trkpt lat="43.71311" lon="3.50058">
        <ele>236.04</ele>
        <time>2015-04-30T07:04:50Z</time>
      </trkpt>
      <trkpt lat="43.71299" lon="3.50038">
        <ele>236.7</ele>
        <time>2015-04-30T07:05:13Z</time>
      </trkpt>
      <trkpt lat="43.7128" lon="3.50035">
        <ele>238.31</ele>
        <time>2015-04-30T07:05:30Z</time>
      </trkpt>
      <trkpt lat="43.71263" lon="3.50025">
        <ele>234.77</ele>
        <time>2015-04-30T07:06:00Z</time>
      </trkpt>
      <trkpt lat="43.71267" lon="3.5">
        <ele>232.36</ele>
        <time>2015-04-30T07:06:14Z</time>
      </trkpt>
      <trkpt lat="43.7125" lon="3.50009">
        <ele>234.79</ele>
        <time>2015-04-30T07:07:07Z</time>
      </trkpt>
      <trkpt lat="43.71232" lon="3.50016">
        <ele>231.83</ele>
        <time>2015-04-30T07:07:23Z</time>
      </trkpt>
      <trkpt lat="43.71214" lon="3.5002">
        <ele>234.57</ele>
        <time>2015-04-30T07:07:40Z</time>
      </trkpt>
      <trkpt lat="43.71196" lon="3.50022">
        <ele>243.2</ele>
        <time>2015-04-30T07:07:59Z</time>
      </trkpt>
      <trkpt lat="43.7118" lon="3.50035">
        <ele>245.65</ele>
        <time>2015-04-30T07:08:21Z</time>
      </trkpt>
      <trkpt lat="43.71164" lon="3.50049">
        <ele>248.95</ele>
        <time>2015-04-30T07:08:43Z</time>
      </trkpt>
      <trkpt lat="43.71154" lon="3.5007">
        <ele>252.54</ele>
        <time>2015-04-30T07:09:02Z</time>
      </trkpt>
      <trkpt lat="43.71144" lon="3.50091">
        <ele>255.56</ele>
        <time>2015-04-30T07:09:18Z</time>
      </trkpt>
      <trkpt lat="43.71136" lon="3.50115">
        <ele>255.31</ele>
        <time>2015-04-30T07:09:34Z</time>
      </trkpt>
      <trkpt lat="43.71133" lon="3.50089">
        <ele>258.73</ele>
        <time>2015-04-30T07:10:06Z</time>
      </trkpt>
      <trkpt lat="43.71144" lon="3.50068">
        <ele>263.86</ele>
        <time>2015-04-30T07:10:24Z</time>
      </trkpt>
      <trkpt lat="43.71126" lon="3.50069">
        <ele>256.39</ele>
        <time>2015-04-30T07:10:50Z</time>
      </trkpt>
      <trkpt lat="43.71108" lon="3.50071">
        <ele>262.41</ele>
        <time>2015-04-30T07:11:11Z</time>
      </trkpt>
      <trkpt lat="43.71091" lon="3.5008">
        <ele>262.68</ele>
        <time>2015-04-30T07:11:35Z</time>
      </trkpt>
      <trkpt lat="43.71085" lon="3.50104">
        <ele>269.2</ele>
        <time>2015-04-30T07:11:56Z</time>
      </trkpt>
      <trkpt lat="43.71078" lon="3.50129">
        <ele>272.62</ele>
        <time>2015-04-30T07:12:13Z</time>
      </trkpt>
      <trkpt lat="43.7107" lon="3.50152">
        <ele>275.41</ele>
        <time>2015-04-30T07:12:34Z</time>
      </trkpt>
      <trkpt lat="43.71061" lon="3.50175">
        <ele>274.88</ele>
        <time>2015-04-30T07:12:52Z</time>
      </trkpt>
      <trkpt lat="43.71052" lon="3.50197">
        <ele>277.71</ele>
        <time>2015-04-30T07:13:11Z</time>
      </trkpt>
      <trkpt lat="43.71042" lon="3.50219">
        <ele>281.5</ele>
        <time>2015-04-30T07:13:37Z</time>
      </trkpt>
      <trkpt lat="43.7103" lon="3.50239">
        <ele>284.57</ele>
        <time>2015-04-30T07:14:00Z</time>
      </trkpt>
      <trkpt lat="43.7102" lon="3.50261">
        <ele>287.69</ele>
        <time>2015-04-30T07:14:17Z</time>
      </trkpt>
      <trkpt lat="43.7101" lon="3.50283">
        <ele>292.17</ele>
        <time>2015-04-30T07:14:34Z</time>
      </trkpt>
      <trkpt lat="43.71" lon="3.50304">
        <ele>293.93</ele>
        <time>2015-04-30T07:14:52Z</time>
      </trkpt>
      <trkpt lat="43.70991" lon="3.50326">
        <ele>296.71</ele>
        <time>2015-04-30T07:15:15Z</time>
      </trkpt>
      <trkpt lat="43.70978" lon="3.50344">
        <ele>300.62</ele>
        <time>2015-04-30T07:15:35Z</time>
      </trkpt>
      <trkpt lat="43.70961" lon="3.50354">
        <ele>303.69</ele>
        <time>2015-04-30T07:15:59Z</time>
      </trkpt>
      <trkpt lat="43.70944" lon="3.50365">
        <ele>305.1</ele>
        <time>2015-04-30T07:16:16Z</time>
      </trkpt>
      <trkpt lat="43.70928" lon="3.50379">
        <ele>307.66</ele>
        <time>2015-04-30T07:16:34Z</time>
      </trkpt>
      <trkpt lat="43.70922" lon="3.50403">
        <ele>305.72</ele>
        <time>2015-04-30T07:24:23Z</time>
      </trkpt>
      <trkpt lat="43.70921" lon="3.50429">
        <ele>303.99</ele>
        <time>2015-04-30T07:24:46Z</time>
      </trkpt>
      <trkpt lat="43.70916" lon="3.50454">
        <ele>304.73</ele>
        <time>2015-04-30T07:25:05Z</time>
      </trkpt>
      <trkpt lat="43.70906" lon="3.50476">
        <ele>308.74</ele>
        <time>2015-04-30T07:25:27Z</time>
      </trkpt>
      <trkpt lat="43.70901" lon="3.50501">
        <ele>311.61</ele>
        <time>2015-04-30T07:25:45Z</time>
      </trkpt>
      <trkpt lat="43.70897" lon="3.50525">
        <ele>312.6</ele>
        <time>2015-04-30T07:26:01Z</time>
      </trkpt>
      <trkpt lat="43.70896" lon="3.50551">
        <ele>320.09</ele>
        <time>2015-04-30T07:26:19Z</time>
      </trkpt>
      <trkpt lat="43.70901" lon="3.50576">
        <ele>324.61</ele>
        <time>2015-04-30T07:26:34Z</time>
      </trkpt>
      <trkpt lat="43.70908" lon="3.50599">
        <ele>327.69</ele>
        <time>2015-04-30T07:26:50Z</time>
      </trkpt>
      <trkpt lat="43.70916" lon="3.50622">
        <ele>331.24</ele>
        <time>2015-04-30T07:27:04Z</time>
      </trkpt>
      <trkpt lat="43.70933" lon="3.50633">
        <ele>327.7</ele>
        <time>2015-04-30T07:27:22Z</time>
      </trkpt>
      <trkpt lat="43.70946" lon="3.50651">
        <ele>331.18</ele>
        <time>2015-04-30T07:27:41Z</time>
      </trkpt>
      <trkpt lat="43.70957" lon="3.50671">
        <ele>334.13</ele>
        <time>2015-04-30T07:27:56Z</time>
      </trkpt>
      <trkpt lat="43.70968" lon="3.50693">
        <ele>338.13</ele>
        <time>2015-04-30T07:28:11Z</time>
      </trkpt>
      <trkpt lat="43.70985" lon="3.50702">
        <ele>336.57</ele>
        <time>2015-04-30T07:28:36Z</time>
      </trkpt>
      <trkpt lat="43.71" lon="3.50717">
        <ele>337.43</ele>
        <time>2015-04-30T07:28:59Z</time>
      </trkpt>
      <trkpt lat="43.71006" lon="3.50742">
        <ele>340.43</ele>
        <time>2015-04-30T07:29:14Z</time>
      </trkpt>
      <trkpt lat="43.71017" lon="3.50764">
        <ele>342.19</ele>
        <time>2015-04-30T07:29:27Z</time>
      </trkpt>
      <trkpt lat="43.71027" lon="3.50785">
        <ele>344.19</ele>
        <time>2015-04-30T07:29:41Z</time>
      </trkpt>
      <trkpt lat="43.71035" lon="3.50809">
        <ele>348.43</ele>
        <time>2015-04-30T07:29:54Z</time>
      </trkpt>
      <trkpt lat="43.71043" lon="3.50831">
        <ele>345.71</ele>
        <time>2015-04-30T07:30:08Z</time>
      </trkpt>
      <trkpt lat="43.71055" lon="3.5085">
        <ele>344.12</ele>
        <time>2015-04-30T07:30:24Z</time>
      </trkpt>
      <trkpt lat="43.71054" lon="3.50876">
        <ele>337.69</ele>
        <time>2015-04-30T07:31:00Z</time>
      </trkpt>
      <trkpt lat="43.71052" lon="3.50902">
        <ele>339.07</ele>
        <time>2015-04-30T07:31:16Z</time>
      </trkpt>
      <trkpt lat="43.7105" lon="3.50926">
        <ele>343.56</ele>
        <time>2015-04-30T07:31:32Z</time>
      </trkpt>
      <trkpt lat="43.7105" lon="3.50952">
        <ele>343.17</ele>
        <time>2015-04-30T07:31:49Z</time>
      </trkpt>
      <trkpt lat="43.7106" lon="3.50975">
        <ele>348.17</ele>
        <time>2015-04-30T07:32:10Z</time>
      </trkpt>
      <trkpt lat="43.71067" lon="3.50997">
        <ele>349.08</ele>
        <time>2015-04-30T07:32:28Z</time>
      </trkpt>
      <trkpt lat="43.71067" lon="3.51024">
        <ele>349.96</ele>
        <time>2015-04-30T07:32:47Z</time>
      </trkpt>
      <trkpt lat="43.71068" lon="3.5105">
        <ele>355.9</ele>
        <time>2015-04-30T07:33:07Z</time>
      </trkpt>
      <trkpt lat="43.71081" lon="3.51069">
        <ele>356.82</ele>
        <time>2015-04-30T07:33:29Z</time>
      </trkpt>
      <trkpt lat="43.7109" lon="3.51092">
        <ele>359.69</ele>
        <time>2015-04-30T07:33:46Z</time>
      </trkpt>
      <trkpt lat="43.71098" lon="3.51114">
        <ele>365.47</ele>
        <time>2015-04-30T07:34:11Z</time>
      </trkpt>
      <trkpt lat="43.71107" lon="3.51137">
        <ele>366.1</ele>
        <time>2015-04-30T07:34:28Z</time>
      </trkpt>
      <trkpt lat="43.71122" lon="3.51152">
        <ele>364.69</ele>
        <time>2015-04-30T07:34:43Z</time>
      </trkpt>
      <trkpt lat="43.71134" lon="3.51172">
        <ele>368.39</ele>
        <time>2015-04-30T07:34:57Z</time>
      </trkpt>
      <trkpt lat="43.71149" lon="3.51189">
        <ele>370.13</ele>
        <time>2015-04-30T07:35:15Z</time>
      </trkpt>
      <trkpt lat="43.71155" lon="3.51213">
        <ele>375.18</ele>
        <time>2015-04-30T07:35:30Z</time>
      </trkpt>
      <trkpt lat="43.71167" lon="3.51233">
        <ele>373.26</ele>
        <time>2015-04-30T07:35:46Z</time>
      </trkpt>
      <trkpt lat="43.71176" lon="3.51255">
        <ele>376</ele>
        <time>2015-04-30T07:36:01Z</time>
      </trkpt>
      <trkpt lat="43.71183" lon="3.51279">
        <ele>376.18</ele>
        <time>2015-04-30T07:36:18Z</time>
      </trkpt>
      <trkpt lat="43.71189" lon="3.51303">
        <ele>380.08</ele>
        <time>2015-04-30T07:36:34Z</time>
      </trkpt>
      <trkpt lat="43.71203" lon="3.51319">
        <ele>378.78</ele>
        <time>2015-04-30T07:36:51Z</time>
      </trkpt>
      <trkpt lat="43.71218" lon="3.51337">
        <ele>381.16</ele>
        <time>2015-04-30T07:37:08Z</time>
      </trkpt>
      <trkpt lat="43.71229" lon="3.51357">
        <ele>385.08</ele>
        <time>2015-04-30T07:37:21Z</time>
      </trkpt>
      <trkpt lat="43.71239" lon="3.51336">
        <ele>385.07</ele>
        <time>2015-04-30T07:37:55Z</time>
      </trkpt>
      <trkpt lat="43.71236" lon="3.51311">
        <ele>382.67</ele>
        <time>2015-04-30T07:38:15Z</time>
      </trkpt>
      <trkpt lat="43.71233" lon="3.51286">
        <ele>383.13</ele>
        <time>2015-04-30T07:38:31Z</time>
      </trkpt>
      <trkpt lat="43.71231" lon="3.5126">
        <ele>375.99</ele>
        <time>2015-04-30T07:38:55Z</time>
      </trkpt>
      <trkpt lat="43.71221" lon="3.51237">
        <ele>374.76</ele>
        <time>2015-04-30T07:39:09Z</time>
      </trkpt>
      <trkpt lat="43.71214" lon="3.51213">
        <ele>376.93</ele>
        <time>2015-04-30T07:39:23Z</time>
      </trkpt>
      <trkpt lat="43.71214" lon="3.51187">
        <ele>382.39</ele>
        <time>2015-04-30T07:39:41Z</time>
      </trkpt>
      <trkpt lat="43.71219" lon="3.51162">
        <ele>382.57</ele>
        <time>2015-04-30T07:39:58Z</time>
      </trkpt>
      <trkpt lat="43.71228" lon="3.51139">
        <ele>384.23</ele>
        <time>2015-04-30T07:40:14Z</time>
      </trkpt>
      <trkpt lat="43.71242" lon="3.51123">
        <ele>385.55</ele>
        <time>2015-04-30T07:40:32Z</time>
      </trkpt>
      <trkpt lat="43.71253" lon="3.51143">
        <ele>389.49</ele>
        <time>2015-04-30T07:41:04Z</time>
      </trkpt>
      <trkpt lat="43.71252" lon="3.51169">
        <ele>391.27</ele>
        <time>2015-04-30T07:41:24Z</time>
      </trkpt>
      <trkpt lat="43.71258" lon="3.51193">
        <ele>391.71</ele>
        <time>2015-04-30T07:41:47Z</time>
      </trkpt>
      <trkpt lat="43.71272" lon="3.5121">
        <ele>392.43</ele>
        <time>2015-04-30T07:42:13Z</time>
      </trkpt>
      <trkpt lat="43.71287" lon="3.51224">
        <ele>399.56</ele>
        <time>2015-04-30T07:42:39Z</time>
      </trkpt>
      <trkpt lat="43.71296" lon="3.51202">
        <ele>400.63</ele>
        <time>2015-04-30T07:43:02Z</time>
      </trkpt>
      <trkpt lat="43.71313" lon="3.51195">
        <ele>409.18</ele>
        <time>2015-04-30T07:43:30Z</time>
      </trkpt>
      <trkpt lat="43.71331" lon="3.51198">
        <ele>410.6</ele>
        <time>2015-04-30T07:43:48Z</time>
      </trkpt>
      <trkpt lat="43.7135" lon="3.5119">
        <ele>417.89</ele>
        <time>2015-04-30T07:44:19Z</time>
      </trkpt>
      <trkpt lat="43.71368" lon="3.51188">
        <ele>417.69</ele>
        <time>2015-04-30T07:44:43Z</time>
      </trkpt>
      <trkpt lat="43.71383" lon="3.51202">
        <ele>421.24</ele>
        <time>2015-04-30T07:45:04Z</time>
      </trkpt>
      <trkpt lat="43.71398" lon="3.51217">
        <ele>421.93</ele>
        <time>2015-04-30T07:45:23Z</time>
      </trkpt>
      <trkpt lat="43.7141" lon="3.51237">
        <ele>426.69</ele>
        <time>2015-04-30T07:45:41Z</time>
      </trkpt>
      <trkpt lat="43.71422" lon="3.51256">
        <ele>431.58</ele>
        <time>2015-04-30T07:46:02Z</time>
      </trkpt>
      <trkpt lat="43.71439" lon="3.51269">
        <ele>431.81</ele>
        <time>2015-04-30T07:46:28Z</time>
      </trkpt>
      <trkpt lat="43.71454" lon="3.51284">
        <ele>437.51</ele>
        <time>2015-04-30T07:46:49Z</time>
      </trkpt>
      <trkpt lat="43.71468" lon="3.51299">
        <ele>440.35</ele>
        <time>2015-04-30T07:47:07Z</time>
      </trkpt>
      <trkpt lat="43.71484" lon="3.51313">
        <ele>445.63</ele>
        <time>2015-04-30T07:47:27Z</time>
      </trkpt>
      <trkpt lat="43.715" lon="3.51326">
        <ele>445.68</ele>
        <time>2015-04-30T07:48:00Z</time>
      </trkpt>
      <trkpt lat="43.71517" lon="3.51335">
        <ele>445.18</ele>
        <time>2015-04-30T08:00:17Z</time>
      </trkpt>
      <trkpt lat="43.71534" lon="3.51345">
        <ele>451.62</ele>
        <time>2015-04-30T08:00:33Z</time>
      </trkpt>
      <trkpt lat="43.71552" lon="3.51352">
        <ele>450.15</ele>
        <time>2015-04-30T08:00:49Z</time>
      </trkpt>
      <trkpt lat="43.7157" lon="3.51352">
        <ele>449.81</ele>
        <time>2015-04-30T08:01:06Z</time>
      </trkpt>
      <trkpt lat="43.71588" lon="3.51348">
        <ele>445.7</ele>
        <time>2015-04-30T08:01:28Z</time>
      </trkpt>
      <trkpt lat="43.71606" lon="3.51342">
        <ele>445.22</ele>
        <time>2015-04-30T08:01:59Z</time>
      </trkpt>
      <trkpt lat="43.71624" lon="3.51334">
        <ele>445.82</ele>
        <time>2015-04-30T08:02:15Z</time>
      </trkpt>
      <trkpt lat="43.71643" lon="3.51337">
        <ele>443.72</ele>
        <time>2015-04-30T08:02:30Z</time>
      </trkpt>
      <trkpt lat="43.71659" lon="3.51351">
        <ele>443.19</ele>
        <time>2015-04-30T08:02:44Z</time>
      </trkpt>
      <trkpt lat="43.71671" lon="3.51369">
        <ele>441.79</ele>
        <time>2015-04-30T08:03:06Z</time>
      </trkpt>
      <trkpt lat="43.71676" lon="3.51393">
        <ele>440.76</ele>
        <time>2015-04-30T08:03:22Z</time>
      </trkpt>
      <trkpt lat="43.71683" lon="3.51417">
        <ele>438.69</ele>
        <time>2015-04-30T08:03:37Z</time>
      </trkpt>
      <trkpt lat="43.71691" lon="3.5144">
        <ele>436.69</ele>
        <time>2015-04-30T08:03:57Z</time>
      </trkpt>
      <trkpt lat="43.71697" lon="3.51463">
        <ele>433.82</ele>
        <time>2015-04-30T08:04:14Z</time>
      </trkpt>
      <trkpt lat="43.717" lon="3.51489">
        <ele>432.05</ele>
        <time>2015-04-30T08:04:31Z</time>
      </trkpt>
      <trkpt lat="43.7171" lon="3.51511">
        <ele>431.68</ele>
        <time>2015-04-30T08:04:47Z</time>
      </trkpt>
      <trkpt lat="43.71725" lon="3.51527">
        <ele>431.69</ele>
        <time>2015-04-30T08:05:05Z</time>
      </trkpt>
      <trkpt lat="43.71743" lon="3.51523">
        <ele>432.69</ele>
        <time>2015-04-30T08:05:23Z</time>
      </trkpt>
      <trkpt lat="43.71759" lon="3.5151">
        <ele>429.88</ele>
        <time>2015-04-30T08:05:41Z</time>
      </trkpt>
      <trkpt lat="43.71776" lon="3.51499">
        <ele>429.69</ele>
        <time>2015-04-30T08:05:57Z</time>
      </trkpt>
      <trkpt lat="43.71792" lon="3.51487">
        <ele>430.69</ele>
        <time>2015-04-30T08:06:13Z</time>
      </trkpt>
      <trkpt lat="43.71809" lon="3.51475">
        <ele>430.69</ele>
        <time>2015-04-30T08:06:30Z</time>
      </trkpt>
      <trkpt lat="43.71825" lon="3.51464">
        <ele>429.69</ele>
        <time>2015-04-30T08:06:45Z</time>
      </trkpt>
      <trkpt lat="43.71841" lon="3.51451">
        <ele>429.69</ele>
        <time>2015-04-30T08:07:01Z</time>
      </trkpt>
      <trkpt lat="43.71856" lon="3.51435">
        <ele>430.76</ele>
        <time>2015-04-30T08:07:17Z</time>
      </trkpt>
      <trkpt lat="43.71871" lon="3.51422">
        <ele>429.69</ele>
        <time>2015-04-30T08:07:33Z</time>
      </trkpt>
      <trkpt lat="43.7189" lon="3.51415">
        <ele>429.63</ele>
        <time>2015-04-30T08:07:50Z</time>
      </trkpt>
      <trkpt lat="43.71908" lon="3.51409">
        <ele>429.91</ele>
        <time>2015-04-30T08:08:06Z</time>
      </trkpt>
      <trkpt lat="43.71926" lon="3.51403">
        <ele>431.63</ele>
        <time>2015-04-30T08:08:24Z</time>
      </trkpt>
      <trkpt lat="43.71943" lon="3.51393">
        <ele>434.41</ele>
        <time>2015-04-30T08:08:43Z</time>
      </trkpt>
      <trkpt lat="43.71959" lon="3.51381">
        <ele>436.43</ele>
        <time>2015-04-30T08:09:03Z</time>
      </trkpt>
      <trkpt lat="43.71973" lon="3.51364">
        <ele>439.68</ele>
        <time>2015-04-30T08:09:22Z</time>
      </trkpt>
      <trkpt lat="43.7199" lon="3.51353">
        <ele>441.66</ele>
        <time>2015-04-30T08:09:40Z</time>
      </trkpt>
      <trkpt lat="43.72007" lon="3.51342">
        <ele>442.25</ele>
        <time>2015-04-30T08:09:58Z</time>
      </trkpt>
      <trkpt lat="43.72024" lon="3.51333">
        <ele>441.82</ele>
        <time>2015-04-30T08:10:16Z</time>
      </trkpt>
      <trkpt lat="43.72042" lon="3.51326">
        <ele>445.88</ele>
        <time>2015-04-30T08:10:35Z</time>
      </trkpt>
      <trkpt lat="43.72059" lon="3.51321">
        <ele>447.53</ele>
        <time>2015-04-30T08:10:52Z</time>
      </trkpt>
      <trkpt lat="43.72077" lon="3.51313">
        <ele>449.69</ele>
        <time>2015-04-30T08:11:10Z</time>
      </trkpt>
      <trkpt lat="43.72094" lon="3.51306">
        <ele>453.63</ele>
        <time>2015-04-30T08:11:27Z</time>
      </trkpt>
      <trkpt lat="43.72111" lon="3.51296">
        <ele>453.68</ele>
        <time>2015-04-30T08:11:46Z</time>
      </trkpt>
      <trkpt lat="43.72128" lon="3.51284">
        <ele>456.65</ele>
        <time>2015-04-30T08:12:03Z</time>
      </trkpt>
      <trkpt lat="43.72145" lon="3.51278">
        <ele>459.57</ele>
        <time>2015-04-30T08:12:21Z</time>
      </trkpt>
      <trkpt lat="43.72163" lon="3.51274">
        <ele>461.57</ele>
        <time>2015-04-30T08:12:39Z</time>
      </trkpt>
      <trkpt lat="43.72174" lon="3.51294">
        <ele>464.63</ele>
        <time>2015-04-30T08:13:05Z</time>
      </trkpt>
      <trkpt lat="43.72184" lon="3.51315">
        <ele>467.58</ele>
        <time>2015-04-30T08:13:24Z</time>
      </trkpt>
      <trkpt lat="43.72201" lon="3.51328">
        <ele>471.64</ele>
        <time>2015-04-30T08:13:43Z</time>
      </trkpt>
      <trkpt lat="43.72218" lon="3.51333">
        <ele>472.51</ele>
        <time>2015-04-30T08:14:01Z</time>
      </trkpt>
      <trkpt lat="43.72237" lon="3.51337">
        <ele>472.9</ele>
        <time>2015-04-30T08:14:18Z</time>
      </trkpt>
      <trkpt lat="43.72254" lon="3.51347">
        <ele>475.69</ele>
        <time>2015-04-30T08:14:35Z</time>
      </trkpt>
      <trkpt lat="43.7227" lon="3.51361">
        <ele>479.84</ele>
        <time>2015-04-30T08:14:53Z</time>
      </trkpt>
      <trkpt lat="43.72285" lon="3.51377">
        <ele>481.69</ele>
        <time>2015-04-30T08:15:11Z</time>
      </trkpt>
      <trkpt lat="43.72296" lon="3.51397">
        <ele>483.82</ele>
        <time>2015-04-30T08:15:29Z</time>
      </trkpt>
      <trkpt lat="43.72302" lon="3.51421">
        <ele>487.69</ele>
        <time>2015-04-30T08:15:43Z</time>
      </trkpt>
      <trkpt lat="43.72305" lon="3.51447">
        <ele>489.69</ele>
        <time>2015-04-30T08:16:00Z</time>
      </trkpt>
      <trkpt lat="43.72299" lon="3.51471">
        <ele>489.65</ele>
        <time>2015-04-30T08:16:19Z</time>
      </trkpt>
      <trkpt lat="43.72294" lon="3.51496">
        <ele>490.66</ele>
        <time>2015-04-30T08:16:37Z</time>
      </trkpt>
      <trkpt lat="43.72293" lon="3.51522">
        <ele>492.57</ele>
        <time>2015-04-30T08:16:54Z</time>
      </trkpt>
      <trkpt lat="43.72299" lon="3.51547">
        <ele>497.31</ele>
        <time>2015-04-30T08:17:11Z</time>
      </trkpt>
      <trkpt lat="43.72315" lon="3.51559">
        <ele>499.93</ele>
        <time>2015-04-30T08:17:29Z</time>
      </trkpt>
      <trkpt lat="43.72333" lon="3.51555">
        <ele>498.69</ele>
        <time>2015-04-30T08:17:43Z</time>
      </trkpt>
      <trkpt lat="43.72351" lon="3.51552">
        <ele>497.91</ele>
        <time>2015-04-30T08:17:57Z</time>
      </trkpt>
      <trkpt lat="43.72368" lon="3.51561">
        <ele>499.19</ele>
        <time>2015-04-30T08:18:13Z</time>
      </trkpt>
      <trkpt lat="43.72386" lon="3.51568">
        <ele>500.54</ele>
        <time>2015-04-30T08:18:28Z</time>
      </trkpt>
      <trkpt lat="43.72405" lon="3.5157">
        <ele>498.32</ele>
        <time>2015-04-30T08:18:47Z</time>
      </trkpt>
      <trkpt lat="43.72424" lon="3.5157">
        <ele>495.95</ele>
        <time>2015-04-30T08:19:03Z</time>
      </trkpt>
      <trkpt lat="43.72442" lon="3.51565">
        <ele>494.76</ele>
        <time>2015-04-30T08:19:18Z</time>
      </trkpt>
      <trkpt lat="43.7246" lon="3.51563">
        <ele>492.26</ele>
        <time>2015-04-30T08:19:33Z</time>
      </trkpt>
      <trkpt lat="43.72479" lon="3.51565">
        <ele>492.2</ele>
        <time>2015-04-30T08:19:49Z</time>
      </trkpt>
      <trkpt lat="43.72497" lon="3.5157">
        <ele>491.68</ele>
        <time>2015-04-30T08:20:04Z</time>
      </trkpt>
      <trkpt lat="43.72512" lon="3.51586">
        <ele>489.94</ele>
        <time>2015-04-30T08:20:21Z</time>
      </trkpt>
      <trkpt lat="43.72516" lon="3.51611">
        <ele>491.72</ele>
        <time>2015-04-30T08:20:38Z</time>
      </trkpt>
      <trkpt lat="43.72513" lon="3.51636">
        <ele>490.69</ele>
        <time>2015-04-30T08:20:53Z</time>
      </trkpt>
      <trkpt lat="43.725" lon="3.51655">
        <ele>488.26</ele>
        <time>2015-04-30T08:21:09Z</time>
      </trkpt>
      <trkpt lat="43.7249" lon="3.51677">
        <ele>489.44</ele>
        <time>2015-04-30T08:21:23Z</time>
      </trkpt>
      <trkpt lat="43.72485" lon="3.51701">
        <ele>487.71</ele>
        <time>2015-04-30T08:21:38Z</time>
      </trkpt>
      <trkpt lat="43.72476" lon="3.51723">
        <ele>489.68</ele>
        <time>2015-04-30T08:21:53Z</time>
      </trkpt>
      <trkpt lat="43.72465" lon="3.51745">
        <ele>493.24</ele>
        <time>2015-04-30T08:22:09Z</time>
      </trkpt>
      <trkpt lat="43.72454" lon="3.51765">
        <ele>492.8</ele>
        <time>2015-04-30T08:22:25Z</time>
      </trkpt>
      <trkpt lat="43.72444" lon="3.51786">
        <ele>495.19</ele>
        <time>2015-04-30T08:22:42Z</time>
      </trkpt>
      <trkpt lat="43.72435" lon="3.51809">
        <ele>498.41</ele>
        <time>2015-04-30T08:22:58Z</time>
      </trkpt>
      <trkpt lat="43.72429" lon="3.51833">
        <ele>497.54</ele>
        <time>2015-04-30T08:23:16Z</time>
      </trkpt>
      <trkpt lat="43.7243" lon="3.51859">
        <ele>500.19</ele>
        <time>2015-04-30T08:23:32Z</time>
      </trkpt>
      <trkpt lat="43.72435" lon="3.51883">
        <ele>501.83</ele>
        <time>2015-04-30T08:23:47Z</time>
      </trkpt>
      <trkpt lat="43.72449" lon="3.51899">
        <ele>504.8</ele>
        <time>2015-04-30T08:24:03Z</time>
      </trkpt>
      <trkpt lat="43.72467" lon="3.51902">
        <ele>504.69</ele>
        <time>2015-04-30T08:24:18Z</time>
      </trkpt>
      <trkpt lat="43.72485" lon="3.51909">
        <ele>505.68</ele>
        <time>2015-04-30T08:24:33Z</time>
      </trkpt>
      <trkpt lat="43.72502" lon="3.51919">
        <ele>504.3</ele>
        <time>2015-04-30T08:24:49Z</time>
      </trkpt>
      <trkpt lat="43.72516" lon="3.51937">
        <ele>506.07</ele>
        <time>2015-04-30T08:25:05Z</time>
      </trkpt>
      <trkpt lat="43.7253" lon="3.51955">
        <ele>508.43</ele>
        <time>2015-04-30T08:25:20Z</time>
      </trkpt>
      <trkpt lat="43.72544" lon="3.51971">
        <ele>508.69</ele>
        <time>2015-04-30T08:25:37Z</time>
      </trkpt>
      <trkpt lat="43.72559" lon="3.51984">
        <ele>510.52</ele>
        <time>2015-04-30T08:25:52Z</time>
      </trkpt>
      <trkpt lat="43.72577" lon="3.51992">
        <ele>511.94</ele>
        <time>2015-04-30T08:26:07Z</time>
      </trkpt>
      <trkpt lat="43.72595" lon="3.51997">
        <ele>511.57</ele>
        <time>2015-04-30T08:26:23Z</time>
      </trkpt>
      <trkpt lat="43.72614" lon="3.51993">
        <ele>515.63</ele>
        <time>2015-04-30T08:26:39Z</time>
      </trkpt>
      <trkpt lat="43.72631" lon="3.51984">
        <ele>519.07</ele>
        <time>2015-04-30T08:26:54Z</time>
      </trkpt>
      <trkpt lat="43.72645" lon="3.51967">
        <ele>518.78</ele>
        <time>2015-04-30T08:27:11Z</time>
      </trkpt>
      <trkpt lat="43.7266" lon="3.51952">
        <ele>517.93</ele>
        <time>2015-04-30T08:27:26Z</time>
      </trkpt>
      <trkpt lat="43.72674" lon="3.51934">
        <ele>517.81</ele>
        <time>2015-04-30T08:27:41Z</time>
      </trkpt>
      <trkpt lat="43.72687" lon="3.51917">
        <ele>515.94</ele>
        <time>2015-04-30T08:27:58Z</time>
      </trkpt>
      <trkpt lat="43.727" lon="3.519">
        <ele>516.66</ele>
        <time>2015-04-30T08:28:15Z</time>
      </trkpt>
      <trkpt lat="43.72715" lon="3.51884">
        <ele>518.21</ele>
        <time>2015-04-30T08:28:30Z</time>
      </trkpt>
      <trkpt lat="43.72733" lon="3.51883">
        <ele>523.93</ele>
        <time>2015-04-30T08:28:44Z</time>
      </trkpt>
      <trkpt lat="43.72744" lon="3.51904">
        <ele>527.46</ele>
        <time>2015-04-30T08:29:03Z</time>
      </trkpt>
      <trkpt lat="43.72748" lon="3.51929">
        <ele>529.75</ele>
        <time>2015-04-30T08:29:19Z</time>
      </trkpt>
      <trkpt lat="43.72749" lon="3.51954">
        <ele>530.6</ele>
        <time>2015-04-30T08:29:35Z</time>
      </trkpt>
      <trkpt lat="43.72751" lon="3.51979">
        <ele>532.3</ele>
        <time>2015-04-30T08:29:50Z</time>
      </trkpt>
      <trkpt lat="43.72752" lon="3.52004">
        <ele>530.63</ele>
        <time>2015-04-30T08:30:38Z</time>
      </trkpt>
      <trkpt lat="43.72769" lon="3.51991">
        <ele>529.45</ele>
        <time>2015-04-30T08:39:24Z</time>
      </trkpt>
      <trkpt lat="43.72787" lon="3.51997">
        <ele>532.53</ele>
        <time>2015-04-30T08:39:41Z</time>
      </trkpt>
      <trkpt lat="43.72806" lon="3.52002">
        <ele>534.11</ele>
        <time>2015-04-30T08:39:56Z</time>
      </trkpt>
      <trkpt lat="43.72824" lon="3.52007">
        <ele>533.92</ele>
        <time>2015-04-30T08:40:09Z</time>
      </trkpt>
      <trkpt lat="43.72841" lon="3.52019">
        <ele>534.91</ele>
        <time>2015-04-30T08:40:23Z</time>
      </trkpt>
      <trkpt lat="43.72858" lon="3.52008">
        <ele>531.83</ele>
        <time>2015-04-30T08:40:37Z</time>
      </trkpt>
      <trkpt lat="43.72871" lon="3.51989">
        <ele>530.05</ele>
        <time>2015-04-30T08:40:51Z</time>
      </trkpt>
      <trkpt lat="43.7288" lon="3.52012">
        <ele>530.51</ele>
        <time>2015-04-30T08:41:24Z</time>
      </trkpt>
      <trkpt lat="43.72885" lon="3.52036">
        <ele>530.54</ele>
        <time>2015-04-30T08:41:38Z</time>
      </trkpt>
      <trkpt lat="43.729" lon="3.52052">
        <ele>529.74</ele>
        <time>2015-04-30T08:41:52Z</time>
      </trkpt>
      <trkpt lat="43.72918" lon="3.52061">
        <ele>528.35</ele>
        <time>2015-04-30T08:42:08Z</time>
      </trkpt>
      <trkpt lat="43.72917" lon="3.52087">
        <ele>527.19</ele>
        <time>2015-04-30T08:42:23Z</time>
      </trkpt>
      <trkpt lat="43.72919" lon="3.52112">
        <ele>526.69</ele>
        <time>2015-04-30T08:42:36Z</time>
      </trkpt>
      <trkpt lat="43.72934" lon="3.52129">
        <ele>526.7</ele>
        <time>2015-04-30T08:42:51Z</time>
      </trkpt>
      <trkpt lat="43.72953" lon="3.52127">
        <ele>526.2</ele>
        <time>2015-04-30T08:43:05Z</time>
      </trkpt>
      <trkpt lat="43.72972" lon="3.5213">
        <ele>522.82</ele>
        <time>2015-04-30T08:43:21Z</time>
      </trkpt>
      <trkpt lat="43.72957" lon="3.52144">
        <ele>521.19</ele>
        <time>2015-04-30T08:43:39Z</time>
      </trkpt>
      <trkpt lat="43.72941" lon="3.52158">
        <ele>513.7</ele>
        <time>2015-04-30T08:43:55Z</time>
      </trkpt>
      <trkpt lat="43.72925" lon="3.52169">
        <ele>512.47</ele>
        <time>2015-04-30T08:44:10Z</time>
      </trkpt>
      <trkpt lat="43.72907" lon="3.52177">
        <ele>509.15</ele>
        <time>2015-04-30T08:44:24Z</time>
      </trkpt>
      <trkpt lat="43.7289" lon="3.52186">
        <ele>506.75</ele>
        <time>2015-04-30T08:44:38Z</time>
      </trkpt>
      <trkpt lat="43.72873" lon="3.52198">
        <ele>504.23</ele>
        <time>2015-04-30T08:44:52Z</time>
      </trkpt>
      <trkpt lat="43.72859" lon="3.52215">
        <ele>503.38</ele>
        <time>2015-04-30T08:45:07Z</time>
      </trkpt>
      <trkpt lat="43.72858" lon="3.52241">
        <ele>501.82</ele>
        <time>2015-04-30T08:45:50Z</time>
      </trkpt>
      <trkpt lat="43.72843" lon="3.52257">
        <ele>500.2</ele>
        <time>2015-04-30T08:46:09Z</time>
      </trkpt>
      <trkpt lat="43.72829" lon="3.52275">
        <ele>500.57</ele>
        <time>2015-04-30T08:46:24Z</time>
      </trkpt>
      <trkpt lat="43.72845" lon="3.52262">
        <ele>496.72</ele>
        <time>2015-04-30T08:46:48Z</time>
      </trkpt>
      <trkpt lat="43.72861" lon="3.52249">
        <ele>496.92</ele>
        <time>2015-04-30T08:47:05Z</time>
      </trkpt>
      <trkpt lat="43.72876" lon="3.52235">
        <ele>494.59</ele>
        <time>2015-04-30T08:47:20Z</time>
      </trkpt>
      <trkpt lat="43.72894" lon="3.52227">
        <ele>496.1</ele>
        <time>2015-04-30T08:47:35Z</time>
      </trkpt>
      <trkpt lat="43.72912" lon="3.52228">
        <ele>495.56</ele>
        <time>2015-04-30T08:47:46Z</time>
      </trkpt>
      <trkpt lat="43.72902" lon="3.52249">
        <ele>491.57</ele>
        <time>2015-04-30T08:48:04Z</time>
      </trkpt>
      <trkpt lat="43.72897" lon="3.52274">
        <ele>491.98</ele>
        <time>2015-04-30T08:48:18Z</time>
      </trkpt>
      <trkpt lat="43.72889" lon="3.52296">
        <ele>491.66</ele>
        <time>2015-04-30T08:48:32Z</time>
      </trkpt>
      <trkpt lat="43.7288" lon="3.52319">
        <ele>492.82</ele>
        <time>2015-04-30T08:48:47Z</time>
      </trkpt>
      <trkpt lat="43.72875" lon="3.52344">
        <ele>496.62</ele>
        <time>2015-04-30T08:49:02Z</time>
      </trkpt>
      <trkpt lat="43.72881" lon="3.52368">
        <ele>499.52</ele>
        <time>2015-04-30T08:49:17Z</time>
      </trkpt>
      <trkpt lat="43.72899" lon="3.52373">
        <ele>501.5</ele>
        <time>2015-04-30T08:49:37Z</time>
      </trkpt>
      <trkpt lat="43.72918" lon="3.52374">
        <ele>505.17</ele>
        <time>2015-04-30T08:49:51Z</time>
      </trkpt>
      <trkpt lat="43.72937" lon="3.52378">
        <ele>504.38</ele>
        <time>2015-04-30T08:50:06Z</time>
      </trkpt>
      <trkpt lat="43.72956" lon="3.52381">
        <ele>501.85</ele>
        <time>2015-04-30T08:50:20Z</time>
      </trkpt>
      <trkpt lat="43.72974" lon="3.52388">
        <ele>504.18</ele>
        <time>2015-04-30T08:50:34Z</time>
      </trkpt>
      <trkpt lat="43.72967" lon="3.52413">
        <ele>494.43</ele>
        <time>2015-04-30T08:50:55Z</time>
      </trkpt>
      <trkpt lat="43.72951" lon="3.52429">
        <ele>499.16</ele>
        <time>2015-04-30T08:51:09Z</time>
      </trkpt>
      <trkpt lat="43.7294" lon="3.52448">
        <ele>504.86</ele>
        <time>2015-04-30T08:51:23Z</time>
      </trkpt>
      <trkpt lat="43.72934" lon="3.52472">
        <ele>504.19</ele>
        <time>2015-04-30T08:51:50Z</time>
      </trkpt>
      <trkpt lat="43.72929" lon="3.52498">
        <ele>503.38</ele>
        <time>2015-04-30T08:52:06Z</time>
      </trkpt>
      <trkpt lat="43.72924" lon="3.52522">
        <ele>498.93</ele>
        <time>2015-04-30T08:52:23Z</time>
      </trkpt>
      <trkpt lat="43.72922" lon="3.52548">
        <ele>500.77</ele>
        <time>2015-04-30T08:52:38Z</time>
      </trkpt>
      <trkpt lat="43.72917" lon="3.52574">
        <ele>502.02</ele>
        <time>2015-04-30T08:52:53Z</time>
      </trkpt>
      <trkpt lat="43.72916" lon="3.52599">
        <ele>499.5</ele>
        <time>2015-04-30T08:53:13Z</time>
      </trkpt>
      <trkpt lat="43.72928" lon="3.52619">
        <ele>503.89</ele>
        <time>2015-04-30T08:53:30Z</time>
      </trkpt>
      <trkpt lat="43.72946" lon="3.52629">
        <ele>509.6</ele>
        <time>2015-04-30T08:53:43Z</time>
      </trkpt>
      <trkpt lat="43.72964" lon="3.52626">
        <ele>506.34</ele>
        <time>2015-04-30T08:54:04Z</time>
      </trkpt>
      <trkpt lat="43.72982" lon="3.52624">
        <ele>506.07</ele>
        <time>2015-04-30T08:54:17Z</time>
      </trkpt>
      <trkpt lat="43.73" lon="3.52623">
        <ele>507.25</ele>
        <time>2015-04-30T08:54:36Z</time>
      </trkpt>
      <trkpt lat="43.73019" lon="3.52625">
        <ele>506.44</ele>
        <time>2015-04-30T08:54:50Z</time>
      </trkpt>
      <trkpt lat="43.73036" lon="3.52635">
        <ele>504.01</ele>
        <time>2015-04-30T08:55:05Z</time>
      </trkpt>
      <trkpt lat="43.73046" lon="3.52656">
        <ele>501.75</ele>
        <time>2015-04-30T08:55:24Z</time>
      </trkpt>
      <trkpt lat="43.73055" lon="3.52679">
        <ele>502.7</ele>
        <time>2015-04-30T08:55:41Z</time>
      </trkpt>
      <trkpt lat="43.73066" lon="3.527">
        <ele>499.5</ele>
        <time>2015-04-30T08:56:01Z</time>
      </trkpt>
      <trkpt lat="43.7308" lon="3.5272">
        <ele>503.17</ele>
        <time>2015-04-30T08:56:17Z</time>
      </trkpt>
      <trkpt lat="43.73091" lon="3.52739">
        <ele>504.21</ele>
        <time>2015-04-30T08:56:32Z</time>
      </trkpt>
      <trkpt lat="43.73097" lon="3.52763">
        <ele>507.33</ele>
        <time>2015-04-30T08:56:46Z</time>
      </trkpt>
      <trkpt lat="43.73087" lon="3.52785">
        <ele>502.81</ele>
        <time>2015-04-30T08:57:07Z</time>
      </trkpt>
      <trkpt lat="43.73074" lon="3.52803">
        <ele>501.45</ele>
        <time>2015-04-30T08:57:25Z</time>
      </trkpt>
      <trkpt lat="43.73061" lon="3.5282">
        <ele>502.65</ele>
        <time>2015-04-30T08:57:43Z</time>
      </trkpt>
      <trkpt lat="43.73051" lon="3.52841">
        <ele>506.23</ele>
        <time>2015-04-30T08:57:59Z</time>
      </trkpt>
      <trkpt lat="43.73043" lon="3.52864">
        <ele>505.39</ele>
        <time>2015-04-30T08:58:17Z</time>
      </trkpt>
      <trkpt lat="43.73039" lon="3.5289">
        <ele>504.63</ele>
        <time>2015-04-30T08:58:34Z</time>
      </trkpt>
      <trkpt lat="43.73039" lon="3.52915">
        <ele>506.47</ele>
        <time>2015-04-30T08:58:49Z</time>
      </trkpt>
      <trkpt lat="43.73047" lon="3.52938">
        <ele>498.15</ele>
        <time>2015-04-30T08:59:10Z</time>
      </trkpt>
      <trkpt lat="43.73059" lon="3.52959">
        <ele>500.05</ele>
        <time>2015-04-30T08:59:26Z</time>
      </trkpt>
      <trkpt lat="43.73073" lon="3.52976">
        <ele>500.91</ele>
        <time>2015-04-30T08:59:40Z</time>
      </trkpt>
      <trkpt lat="43.7309" lon="3.52986">
        <ele>504.91</ele>
        <time>2015-04-30T08:59:54Z</time>
      </trkpt>
      <trkpt lat="43.73108" lon="3.52992">
        <ele>500.69</ele>
        <time>2015-04-30T09:00:13Z</time>
      </trkpt>
      <trkpt lat="43.73126" lon="3.52991">
        <ele>501.15</ele>
        <time>2015-04-30T09:00:27Z</time>
      </trkpt>
      <trkpt lat="43.73146" lon="3.52992">
        <ele>503.37</ele>
        <time>2015-04-30T09:00:40Z</time>
      </trkpt>
      <trkpt lat="43.73164" lon="3.52994">
        <ele>504.01</ele>
        <time>2015-04-30T09:00:52Z</time>
      </trkpt>
      <trkpt lat="43.73183" lon="3.52997">
        <ele>504.68</ele>
        <time>2015-04-30T09:01:06Z</time>
      </trkpt>
      <trkpt lat="43.73201" lon="3.53002">
        <ele>502.19</ele>
        <time>2015-04-30T09:01:23Z</time>
      </trkpt>
      <trkpt lat="43.73218" lon="3.53011">
        <ele>496.16</ele>
        <time>2015-04-30T09:01:42Z</time>
      </trkpt>
      <trkpt lat="43.73236" lon="3.53017">
        <ele>494.64</ele>
        <time>2015-04-30T09:02:02Z</time>
      </trkpt>
      <trkpt lat="43.73254" lon="3.53018">
        <ele>492.57</ele>
        <time>2015-04-30T09:02:18Z</time>
      </trkpt>
      <trkpt lat="43.73271" lon="3.5301">
        <ele>492.17</ele>
        <time>2015-04-30T09:02:35Z</time>
      </trkpt>
      <trkpt lat="43.73288" lon="3.52998">
        <ele>491.87</ele>
        <time>2015-04-30T09:02:46Z</time>
      </trkpt>
      <trkpt lat="43.73306" lon="3.52993">
        <ele>493.88</ele>
        <time>2015-04-30T09:02:59Z</time>
      </trkpt>
      <trkpt lat="43.73323" lon="3.53003">
        <ele>491.69</ele>
        <time>2015-04-30T09:09:01Z</time>
      </trkpt>
      <trkpt lat="43.73341" lon="3.53006">
        <ele>491.64</ele>
        <time>2015-04-30T09:09:17Z</time>
      </trkpt>
      <trkpt lat="43.73358" lon="3.53014">
        <ele>494.45</ele>
        <time>2015-04-30T09:09:33Z</time>
      </trkpt>
      <trkpt lat="43.73376" lon="3.53021">
        <ele>499.12</ele>
        <time>2015-04-30T09:09:51Z</time>
      </trkpt>
      <trkpt lat="43.73378" lon="3.52996">
        <ele>504.45</ele>
        <time>2015-04-30T09:10:40Z</time>
      </trkpt>
      <trkpt lat="43.73377" lon="3.52971">
        <ele>510.4</ele>
        <time>2015-04-30T09:10:59Z</time>
      </trkpt>
      <trkpt lat="43.73397" lon="3.52977">
        <ele>514.62</ele>
        <time>2015-04-30T09:11:26Z</time>
      </trkpt>
      <trkpt lat="43.73413" lon="3.52989">
        <ele>518.27</ele>
        <time>2015-04-30T09:11:43Z</time>
      </trkpt>
      <trkpt lat="43.73425" lon="3.53009">
        <ele>519.37</ele>
        <time>2015-04-30T09:12:05Z</time>
      </trkpt>
      <trkpt lat="43.73432" lon="3.53032">
        <ele>521.84</ele>
        <time>2015-04-30T09:15:35Z</time>
      </trkpt>
      <trkpt lat="43.73427" lon="3.53007">
        <ele>524</ele>
        <time>2015-04-30T09:20:48Z</time>
      </trkpt>
      <trkpt lat="43.73427" lon="3.52982">
        <ele>521.74</ele>
        <time>2015-04-30T09:21:08Z</time>
      </trkpt>
      <trkpt lat="43.73432" lon="3.52958">
        <ele>522.88</ele>
        <time>2015-04-30T09:21:27Z</time>
      </trkpt>
      <trkpt lat="43.73444" lon="3.52938">
        <ele>526.19</ele>
        <time>2015-04-30T09:22:00Z</time>
      </trkpt>
      <trkpt lat="43.73458" lon="3.5292">
        <ele>524.88</ele>
        <time>2015-04-30T09:22:18Z</time>
      </trkpt>
      <trkpt lat="43.73472" lon="3.52902">
        <ele>529.32</ele>
        <time>2015-04-30T09:22:39Z</time>
      </trkpt>
      <trkpt lat="43.73487" lon="3.52889">
        <ele>535.49</ele>
        <time>2015-04-30T09:22:57Z</time>
      </trkpt>
      <trkpt lat="43.73505" lon="3.52884">
        <ele>538.14</ele>
        <time>2015-04-30T09:23:19Z</time>
      </trkpt>
      <trkpt lat="43.73515" lon="3.52863">
        <ele>539.26</ele>
        <time>2015-04-30T09:26:22Z</time>
      </trkpt>
      <trkpt lat="43.73514" lon="3.52837">
        <ele>543.01</ele>
        <time>2015-04-30T09:26:47Z</time>
      </trkpt>
      <trkpt lat="43.73506" lon="3.52814">
        <ele>546.32</ele>
        <time>2015-04-30T09:27:05Z</time>
      </trkpt>
      <trkpt lat="43.73489" lon="3.52802">
        <ele>548.38</ele>
        <time>2015-04-30T09:27:25Z</time>
      </trkpt>
      <trkpt lat="43.73472" lon="3.52794">
        <ele>546.19</ele>
        <time>2015-04-30T09:27:41Z</time>
      </trkpt>
      <trkpt lat="43.73455" lon="3.52786">
        <ele>546.72</ele>
        <time>2015-04-30T09:27:59Z</time>
      </trkpt>
      <trkpt lat="43.73437" lon="3.52778">
        <ele>545.82</ele>
        <time>2015-04-30T09:28:19Z</time>
      </trkpt>
      <trkpt lat="43.73419" lon="3.52772">
        <ele>544.69</ele>
        <time>2015-04-30T09:28:35Z</time>
      </trkpt>
      <trkpt lat="43.73401" lon="3.52767">
        <ele>545.15</ele>
        <time>2015-04-30T09:28:51Z</time>
      </trkpt>
      <trkpt lat="43.73383" lon="3.5276">
        <ele>544.87</ele>
        <time>2015-04-30T09:29:06Z</time>
      </trkpt>
      <trkpt lat="43.73365" lon="3.52752">
        <ele>542.44</ele>
        <time>2015-04-30T09:29:21Z</time>
      </trkpt>
      <trkpt lat="43.73347" lon="3.52746">
        <ele>542.69</ele>
        <time>2015-04-30T09:29:37Z</time>
      </trkpt>
      <trkpt lat="43.73329" lon="3.52737">
        <ele>542.72</ele>
        <time>2015-04-30T09:29:52Z</time>
      </trkpt>
      <trkpt lat="43.73311" lon="3.52731">
        <ele>543.69</ele>
        <time>2015-04-30T09:30:09Z</time>
      </trkpt>
      <trkpt lat="43.73293" lon="3.52724">
        <ele>545.19</ele>
        <time>2015-04-30T09:30:26Z</time>
      </trkpt>
      <trkpt lat="43.73275" lon="3.52727">
        <ele>548.31</ele>
        <time>2015-04-30T09:30:43Z</time>
      </trkpt>
      <trkpt lat="43.73259" lon="3.52715">
        <ele>550.72</ele>
        <time>2015-04-30T09:31:44Z</time>
      </trkpt>
      <trkpt lat="43.73263" lon="3.52691">
        <ele>546.75</ele>
        <time>2015-04-30T09:32:31Z</time>
      </trkpt>
      <trkpt lat="43.73271" lon="3.52668">
        <ele>550.76</ele>
        <time>2015-04-30T09:32:47Z</time>
      </trkpt>
      <trkpt lat="43.73278" lon="3.52644">
        <ele>554.55</ele>
        <time>2015-04-30T09:33:02Z</time>
      </trkpt>
      <trkpt lat="43.73285" lon="3.52621">
        <ele>555.44</ele>
        <time>2015-04-30T09:33:17Z</time>
      </trkpt>
      <trkpt lat="43.73293" lon="3.52597">
        <ele>554.82</ele>
        <time>2015-04-30T09:33:33Z</time>
      </trkpt>
      <trkpt lat="43.73302" lon="3.52574">
        <ele>555.66</ele>
        <time>2015-04-30T09:33:48Z</time>
      </trkpt>
      <trkpt lat="43.73309" lon="3.52551">
        <ele>554.95</ele>
        <time>2015-04-30T09:34:05Z</time>
      </trkpt>
      <trkpt lat="43.73317" lon="3.52527">
        <ele>556.87</ele>
        <time>2015-04-30T09:34:22Z</time>
      </trkpt>
      <trkpt lat="43.73328" lon="3.52507">
        <ele>560.03</ele>
        <time>2015-04-30T09:34:38Z</time>
      </trkpt>
      <trkpt lat="43.7334" lon="3.52488">
        <ele>561.46</ele>
        <time>2015-04-30T09:34:53Z</time>
      </trkpt>
      <trkpt lat="43.73353" lon="3.52469">
        <ele>562.69</ele>
        <time>2015-04-30T09:35:08Z</time>
      </trkpt>
      <trkpt lat="43.73367" lon="3.52452">
        <ele>563.57</ele>
        <time>2015-04-30T09:35:21Z</time>
      </trkpt>
      <trkpt lat="43.73379" lon="3.52433">
        <ele>565.69</ele>
        <time>2015-04-30T09:35:36Z</time>
      </trkpt>
      <trkpt lat="43.73393" lon="3.52417">
        <ele>566.85</ele>
        <time>2015-04-30T09:35:52Z</time>
      </trkpt>
      <trkpt lat="43.73408" lon="3.52401">
        <ele>569.65</ele>
        <time>2015-04-30T09:36:07Z</time>
      </trkpt>
      <trkpt lat="43.73421" lon="3.52383">
        <ele>567.71</ele>
        <time>2015-04-30T09:36:24Z</time>
      </trkpt>
      <trkpt lat="43.73434" lon="3.52364">
        <ele>566.51</ele>
        <time>2015-04-30T09:36:39Z</time>
      </trkpt>
      <trkpt lat="43.73445" lon="3.52343">
        <ele>564.19</ele>
        <time>2015-04-30T09:36:57Z</time>
      </trkpt>
      <trkpt lat="43.73457" lon="3.52325">
        <ele>561.82</ele>
        <time>2015-04-30T09:37:12Z</time>
      </trkpt>
      <trkpt lat="43.73469" lon="3.52306">
        <ele>558.77</ele>
        <time>2015-04-30T09:37:27Z</time>
      </trkpt>
      <trkpt lat="43.7348" lon="3.52285">
        <ele>556.7</ele>
        <time>2015-04-30T09:37:43Z</time>
      </trkpt>
      <trkpt lat="43.73491" lon="3.52264">
        <ele>555.79</ele>
        <time>2015-04-30T09:37:59Z</time>
      </trkpt>
      <trkpt lat="43.73497" lon="3.52239">
        <ele>553.91</ele>
        <time>2015-04-30T09:38:15Z</time>
      </trkpt>
      <trkpt lat="43.73503" lon="3.52216">
        <ele>551.69</ele>
        <time>2015-04-30T09:38:31Z</time>
      </trkpt>
      <trkpt lat="43.73517" lon="3.522">
        <ele>549.55</ele>
        <time>2015-04-30T09:38:46Z</time>
      </trkpt>
      <trkpt lat="43.73534" lon="3.52187">
        <ele>546.97</ele>
        <time>2015-04-30T09:39:05Z</time>
      </trkpt>
      <trkpt lat="43.73545" lon="3.52167">
        <ele>544.71</ele>
        <time>2015-04-30T09:39:23Z</time>
      </trkpt>
      <trkpt lat="43.73533" lon="3.52148">
        <ele>541.84</ele>
        <time>2015-04-30T09:39:39Z</time>
      </trkpt>
      <trkpt lat="43.73522" lon="3.52127">
        <ele>541.97</ele>
        <time>2015-04-30T09:40:20Z</time>
      </trkpt>
      <trkpt lat="43.73514" lon="3.52104">
        <ele>537.71</ele>
        <time>2015-04-30T09:40:38Z</time>
      </trkpt>
      <trkpt lat="43.73509" lon="3.52079">
        <ele>536.74</ele>
        <time>2015-04-30T09:40:53Z</time>
      </trkpt>
      <trkpt lat="43.73513" lon="3.52053">
        <ele>533.27</ele>
        <time>2015-04-30T09:41:10Z</time>
      </trkpt>
      <trkpt lat="43.73525" lon="3.52034">
        <ele>532.69</ele>
        <time>2015-04-30T09:41:25Z</time>
      </trkpt>
      <trkpt lat="43.73529" lon="3.52009">
        <ele>533.19</ele>
        <time>2015-04-30T09:41:42Z</time>
      </trkpt>
      <trkpt lat="43.73533" lon="3.51984">
        <ele>531.69</ele>
        <time>2015-04-30T09:41:59Z</time>
      </trkpt>
      <trkpt lat="43.73537" lon="3.5196">
        <ele>530.21</ele>
        <time>2015-04-30T09:42:16Z</time>
      </trkpt>
      <trkpt lat="43.73541" lon="3.51935">
        <ele>527.95</ele>
        <time>2015-04-30T09:42:32Z</time>
      </trkpt>
      <trkpt lat="43.73547" lon="3.5191">
        <ele>526.38</ele>
        <time>2015-04-30T09:42:47Z</time>
      </trkpt>
      <trkpt lat="43.73555" lon="3.51887">
        <ele>527.64</ele>
        <time>2015-04-30T09:43:03Z</time>
      </trkpt>
      <trkpt lat="43.73558" lon="3.51861">
        <ele>526.73</ele>
        <time>2015-04-30T09:43:18Z</time>
      </trkpt>
      <trkpt lat="43.7356" lon="3.51835">
        <ele>525.81</ele>
        <time>2015-04-30T09:43:33Z</time>
      </trkpt>
      <trkpt lat="43.73563" lon="3.5181">
        <ele>524.39</ele>
        <time>2015-04-30T09:43:48Z</time>
      </trkpt>
      <trkpt lat="43.73567" lon="3.51786">
        <ele>525.33</ele>
        <time>2015-04-30T09:44:04Z</time>
      </trkpt>
      <trkpt lat="43.73575" lon="3.51763">
        <ele>522.58</ele>
        <time>2015-04-30T09:44:20Z</time>
      </trkpt>
      <trkpt lat="43.73557" lon="3.51767">
        <ele>521.95</ele>
        <time>2015-04-30T09:44:51Z</time>
      </trkpt>
      <trkpt lat="43.73541" lon="3.51781">
        <ele>518.02</ele>
        <time>2015-04-30T09:45:06Z</time>
      </trkpt>
      <trkpt lat="43.73534" lon="3.51756">
        <ele>518.99</ele>
        <time>2015-04-30T09:45:25Z</time>
      </trkpt>
      <trkpt lat="43.73534" lon="3.51731">
        <ele>520.22</ele>
        <time>2015-04-30T09:45:43Z</time>
      </trkpt>
      <trkpt lat="43.73529" lon="3.51707">
        <ele>517.78</ele>
        <time>2015-04-30T09:46:11Z</time>
      </trkpt>
      <trkpt lat="43.73524" lon="3.51681">
        <ele>516.85</ele>
        <time>2015-04-30T09:46:21Z</time>
      </trkpt>
      <trkpt lat="43.73515" lon="3.51658">
        <ele>514.46</ele>
        <time>2015-04-30T09:46:37Z</time>
      </trkpt>
      <trkpt lat="43.73501" lon="3.5164">
        <ele>511.76</ele>
        <time>2015-04-30T09:46:50Z</time>
      </trkpt>
      <trkpt lat="43.73496" lon="3.51616">
        <ele>509.79</ele>
        <time>2015-04-30T09:47:04Z</time>
      </trkpt>
      <trkpt lat="43.73507" lon="3.51595">
        <ele>506.93</ele>
        <time>2015-04-30T09:47:21Z</time>
      </trkpt>
      <trkpt lat="43.73521" lon="3.51579">
        <ele>503.76</ele>
        <time>2015-04-30T09:47:37Z</time>
      </trkpt>
      <trkpt lat="43.73529" lon="3.51555">
        <ele>499.36</ele>
        <time>2015-04-30T09:47:52Z</time>
      </trkpt>
      <trkpt lat="43.73537" lon="3.51533">
        <ele>493.64</ele>
        <time>2015-04-30T09:48:08Z</time>
      </trkpt>
      <trkpt lat="43.73545" lon="3.5151">
        <ele>488.73</ele>
        <time>2015-04-30T09:48:24Z</time>
      </trkpt>
      <trkpt lat="43.73559" lon="3.51492">
        <ele>482.52</ele>
        <time>2015-04-30T09:48:40Z</time>
      </trkpt>
      <trkpt lat="43.73561" lon="3.51466">
        <ele>484.91</ele>
        <time>2015-04-30T09:48:53Z</time>
      </trkpt>
      <trkpt lat="43.73573" lon="3.51446">
        <ele>483.69</ele>
        <time>2015-04-30T09:49:11Z</time>
      </trkpt>
      <trkpt lat="43.73583" lon="3.51425">
        <ele>479.26</ele>
        <time>2015-04-30T09:49:28Z</time>
      </trkpt>
      <trkpt lat="43.73597" lon="3.51407">
        <ele>476.8</ele>
        <time>2015-04-30T09:49:44Z</time>
      </trkpt>
      <trkpt lat="43.73605" lon="3.51384">
        <ele>473.19</ele>
        <time>2015-04-30T09:50:00Z</time>
      </trkpt>
      <trkpt lat="43.73601" lon="3.51359">
        <ele>469.83</ele>
        <time>2015-04-30T09:50:18Z</time>
      </trkpt>
      <trkpt lat="43.73598" lon="3.51335">
        <ele>472.39</ele>
        <time>2015-04-30T09:50:33Z</time>
      </trkpt>
      <trkpt lat="43.73601" lon="3.5131">
        <ele>470.47</ele>
        <time>2015-04-30T09:50:49Z</time>
      </trkpt>
      <trkpt lat="43.73611" lon="3.51289">
        <ele>467.67</ele>
        <time>2015-04-30T09:51:04Z</time>
      </trkpt>
      <trkpt lat="43.73624" lon="3.51272">
        <ele>463.71</ele>
        <time>2015-04-30T09:51:20Z</time>
      </trkpt>
      <trkpt lat="43.7364" lon="3.51258">
        <ele>462.69</ele>
        <time>2015-04-30T09:51:35Z</time>
      </trkpt>
      <trkpt lat="43.73651" lon="3.51236">
        <ele>461.19</ele>
        <time>2015-04-30T09:51:51Z</time>
      </trkpt>
      <trkpt lat="43.73656" lon="3.51212">
        <ele>459.45</ele>
        <time>2015-04-30T09:52:05Z</time>
      </trkpt>
      <trkpt lat="43.73666" lon="3.5119">
        <ele>460.67</ele>
        <time>2015-04-30T09:52:19Z</time>
      </trkpt>
      <trkpt lat="43.73675" lon="3.51168">
        <ele>461.97</ele>
        <time>2015-04-30T09:52:36Z</time>
      </trkpt>
      <trkpt lat="43.73689" lon="3.51151">
        <ele>460.94</ele>
        <time>2015-04-30T09:52:52Z</time>
      </trkpt>
      <trkpt lat="43.73703" lon="3.51136">
        <ele>457.77</ele>
        <time>2015-04-30T09:53:08Z</time>
      </trkpt>
      <trkpt lat="43.73697" lon="3.51112">
        <ele>454.21</ele>
        <time>2015-04-30T09:53:27Z</time>
      </trkpt>
      <trkpt lat="43.73706" lon="3.51089">
        <ele>451.54</ele>
        <time>2015-04-30T09:53:43Z</time>
      </trkpt>
      <trkpt lat="43.73715" lon="3.51066">
        <ele>450.7</ele>
        <time>2015-04-30T09:53:58Z</time>
      </trkpt>
      <trkpt lat="43.73723" lon="3.51043">
        <ele>448.79</ele>
        <time>2015-04-30T09:54:15Z</time>
      </trkpt>
      <trkpt lat="43.73733" lon="3.51021">
        <ele>446.35</ele>
        <time>2015-04-30T09:54:32Z</time>
      </trkpt>
      <trkpt lat="43.73743" lon="3.51">
        <ele>441.88</ele>
        <time>2015-04-30T09:54:49Z</time>
      </trkpt>
      <trkpt lat="43.73753" lon="3.50978">
        <ele>442.72</ele>
        <time>2015-04-30T09:55:06Z</time>
      </trkpt>
      <trkpt lat="43.73764" lon="3.50957">
        <ele>441.45</ele>
        <time>2015-04-30T09:55:23Z</time>
      </trkpt>
      <trkpt lat="43.73783" lon="3.50955">
        <ele>438.77</ele>
        <time>2015-04-30T09:55:39Z</time>
      </trkpt>
      <trkpt lat="43.73799" lon="3.50941">
        <ele>434.49</ele>
        <time>2015-04-30T09:55:55Z</time>
      </trkpt>
      <trkpt lat="43.73813" lon="3.50923">
        <ele>431.83</ele>
        <time>2015-04-30T09:56:11Z</time>
      </trkpt>
      <trkpt lat="43.7383" lon="3.50912">
        <ele>429.77</ele>
        <time>2015-04-30T09:56:25Z</time>
      </trkpt>
      <trkpt lat="43.73841" lon="3.50893">
        <ele>431.44</ele>
        <time>2015-04-30T09:56:41Z</time>
      </trkpt>
      <trkpt lat="43.7385" lon="3.50871">
        <ele>429.92</ele>
        <time>2015-04-30T09:56:56Z</time>
      </trkpt>
      <trkpt lat="43.73867" lon="3.50862">
        <ele>430.61</ele>
        <time>2015-04-30T09:57:13Z</time>
      </trkpt>
      <trkpt lat="43.73885" lon="3.50867">
        <ele>432.56</ele>
        <time>2015-04-30T09:57:30Z</time>
      </trkpt>
      <trkpt lat="43.73904" lon="3.50861">
        <ele>435.16</ele>
        <time>2015-04-30T09:57:45Z</time>
      </trkpt>
      <trkpt lat="43.73922" lon="3.50852">
        <ele>433.82</ele>
        <time>2015-04-30T09:58:01Z</time>
      </trkpt>
      <trkpt lat="43.73941" lon="3.50846">
        <ele>433.81</ele>
        <time>2015-04-30T09:58:15Z</time>
      </trkpt>
      <trkpt lat="43.73959" lon="3.50842">
        <ele>433.84</ele>
        <time>2015-04-30T09:58:30Z</time>
      </trkpt>
      <trkpt lat="43.73977" lon="3.50834">
        <ele>435.17</ele>
        <time>2015-04-30T09:58:45Z</time>
      </trkpt>
      <trkpt lat="43.73993" lon="3.50821">
        <ele>432.36</ele>
        <time>2015-04-30T09:59:00Z</time>
      </trkpt>
      <trkpt lat="43.74009" lon="3.50807">
        <ele>428.8</ele>
        <time>2015-04-30T09:59:14Z</time>
      </trkpt>
      <trkpt lat="43.74019" lon="3.50785">
        <ele>427.75</ele>
        <time>2015-04-30T09:59:32Z</time>
      </trkpt>
      <trkpt lat="43.74028" lon="3.50762">
        <ele>429.66</ele>
        <time>2015-04-30T09:59:50Z</time>
      </trkpt>
      <trkpt lat="43.7404" lon="3.50743">
        <ele>427.94</ele>
        <time>2015-04-30T10:00:05Z</time>
      </trkpt>
      <trkpt lat="43.74054" lon="3.50726">
        <ele>426.81</ele>
        <time>2015-04-30T10:00:20Z</time>
      </trkpt>
      <trkpt lat="43.74064" lon="3.50706">
        <ele>431.28</ele>
        <time>2015-04-30T10:00:43Z</time>
      </trkpt>
      <trkpt lat="43.7407" lon="3.50681">
        <ele>430.3</ele>
        <time>2015-04-30T10:00:57Z</time>
      </trkpt>
      <trkpt lat="43.74077" lon="3.50657">
        <ele>426.07</ele>
        <time>2015-04-30T10:01:12Z</time>
      </trkpt>
      <trkpt lat="43.74091" lon="3.5064">
        <ele>426.05</ele>
        <time>2015-04-30T10:01:28Z</time>
      </trkpt>
      <trkpt lat="43.74098" lon="3.50615">
        <ele>428.4</ele>
        <time>2015-04-30T10:01:44Z</time>
      </trkpt>
      <trkpt lat="43.74103" lon="3.50591">
        <ele>429.39</ele>
        <time>2015-04-30T10:01:59Z</time>
      </trkpt>
      <trkpt lat="43.74102" lon="3.50566">
        <ele>434</ele>
        <time>2015-04-30T10:02:14Z</time>
      </trkpt>
      <trkpt lat="43.74102" lon="3.50539">
        <ele>435.26</ele>
        <time>2015-04-30T10:02:31Z</time>
      </trkpt>
      <trkpt lat="43.741" lon="3.50514">
        <ele>437.68</ele>
        <time>2015-04-30T10:02:46Z</time>
      </trkpt>
      <trkpt lat="43.74094" lon="3.50491">
        <ele>439.46</ele>
        <time>2015-04-30T10:03:02Z</time>
      </trkpt>
      <trkpt lat="43.74092" lon="3.50464">
        <ele>441.69</ele>
        <time>2015-04-30T10:03:18Z</time>
      </trkpt>
      <trkpt lat="43.74092" lon="3.50439">
        <ele>443.5</ele>
        <time>2015-04-30T10:03:35Z</time>
      </trkpt>
      <trkpt lat="43.74101" lon="3.50416">
        <ele>441.95</ele>
        <time>2015-04-30T10:03:53Z</time>
      </trkpt>
      <trkpt lat="43.74112" lon="3.50396">
        <ele>443.69</ele>
        <time>2015-04-30T10:04:10Z</time>
      </trkpt>
      <trkpt lat="43.74118" lon="3.50372">
        <ele>445.17</ele>
        <time>2015-04-30T10:04:27Z</time>
      </trkpt>
      <trkpt lat="43.74121" lon="3.50346">
        <ele>446.55</ele>
        <time>2015-04-30T10:04:44Z</time>
      </trkpt>
      <trkpt lat="43.74122" lon="3.5032">
        <ele>449.63</ele>
        <time>2015-04-30T10:05:01Z</time>
      </trkpt>
      <trkpt lat="43.74121" lon="3.50294">
        <ele>453.47</ele>
        <time>2015-04-30T10:05:18Z</time>
      </trkpt>
      <trkpt lat="43.74124" lon="3.5027">
        <ele>453.55</ele>
        <time>2015-04-30T10:05:35Z</time>
      </trkpt>
      <trkpt lat="43.74132" lon="3.50247">
        <ele>453.76</ele>
        <time>2015-04-30T10:05:53Z</time>
      </trkpt>
      <trkpt lat="43.74134" lon="3.50221">
        <ele>461.72</ele>
        <time>2015-04-30T11:10:34Z</time>
      </trkpt>
      <trkpt lat="43.74134" lon="3.50196">
        <ele>459.72</ele>
        <time>2015-04-30T11:11:33Z</time>
      </trkpt>
      <trkpt lat="43.74123" lon="3.50173">
        <ele>458.57</ele>
        <time>2015-04-30T11:11:51Z</time>
      </trkpt>
      <trkpt lat="43.74108" lon="3.50156">
        <ele>458.86</ele>
        <time>2015-04-30T11:12:06Z</time>
      </trkpt>
      <trkpt lat="43.74097" lon="3.50136">
        <ele>460.04</ele>
        <time>2015-04-30T11:12:27Z</time>
      </trkpt>
      <trkpt lat="43.74087" lon="3.50115">
        <ele>467.18</ele>
        <time>2015-04-30T11:12:41Z</time>
      </trkpt>
      <trkpt lat="43.74075" lon="3.50095">
        <ele>460.36</ele>
        <time>2015-04-30T11:12:57Z</time>
      </trkpt>
      <trkpt lat="43.74059" lon="3.50083">
        <ele>457.44</ele>
        <time>2015-04-30T11:13:11Z</time>
      </trkpt>
      <trkpt lat="43.74043" lon="3.50096">
        <ele>456.19</ele>
        <time>2015-04-30T11:13:26Z</time>
      </trkpt>
      <trkpt lat="43.7403" lon="3.50114">
        <ele>454.74</ele>
        <time>2015-04-30T11:13:40Z</time>
      </trkpt>
      <trkpt lat="43.74012" lon="3.50122">
        <ele>454.59</ele>
        <time>2015-04-30T11:13:57Z</time>
      </trkpt>
      <trkpt lat="43.73998" lon="3.50139">
        <ele>454.81</ele>
        <time>2015-04-30T11:14:12Z</time>
      </trkpt>
      <trkpt lat="43.73981" lon="3.50145">
        <ele>452.85</ele>
        <time>2015-04-30T11:14:28Z</time>
      </trkpt>
      <trkpt lat="43.73973" lon="3.50122">
        <ele>457.77</ele>
        <time>2015-04-30T11:14:43Z</time>
      </trkpt>
      <trkpt lat="43.73969" lon="3.50097">
        <ele>460.38</ele>
        <time>2015-04-30T11:14:59Z</time>
      </trkpt>
      <trkpt lat="43.73981" lon="3.50078">
        <ele>457.25</ele>
        <time>2015-04-30T11:15:14Z</time>
      </trkpt>
      <trkpt lat="43.73992" lon="3.50057">
        <ele>454.8</ele>
        <time>2015-04-30T11:15:29Z</time>
      </trkpt>
      <trkpt lat="43.73996" lon="3.50032">
        <ele>452.28</ele>
        <time>2015-04-30T11:15:43Z</time>
      </trkpt>
      <trkpt lat="43.73981" lon="3.50017">
        <ele>452.64</ele>
        <time>2015-04-30T11:16:00Z</time>
      </trkpt>
      <trkpt lat="43.73963" lon="3.50013">
        <ele>454.63</ele>
        <time>2015-04-30T11:16:13Z</time>
      </trkpt>
      <trkpt lat="43.73947" lon="3.5">
        <ele>453.1</ele>
        <time>2015-04-30T11:16:29Z</time>
      </trkpt>
      <trkpt lat="43.73944" lon="3.49974">
        <ele>451.46</ele>
        <time>2015-04-30T11:16:47Z</time>
      </trkpt>
      <trkpt lat="43.73936" lon="3.49951">
        <ele>456.34</ele>
        <time>2015-04-30T11:17:02Z</time>
      </trkpt>
      <trkpt lat="43.73919" lon="3.49939">
        <ele>455.7</ele>
        <time>2015-04-30T11:17:15Z</time>
      </trkpt>
      <trkpt lat="43.73902" lon="3.49946">
        <ele>456.87</ele>
        <time>2015-04-30T11:17:29Z</time>
      </trkpt>
      <trkpt lat="43.73888" lon="3.49929">
        <ele>457.18</ele>
        <time>2015-04-30T11:17:42Z</time>
      </trkpt>
      <trkpt lat="43.73875" lon="3.4991">
        <ele>454.74</ele>
        <time>2015-04-30T11:18:00Z</time>
      </trkpt>
      <trkpt lat="43.73862" lon="3.49892">
        <ele>451.86</ele>
        <time>2015-04-30T11:18:16Z</time>
      </trkpt>
      <trkpt lat="43.73847" lon="3.49878">
        <ele>454.82</ele>
        <time>2015-04-30T11:18:31Z</time>
      </trkpt>
      <trkpt lat="43.73848" lon="3.49852">
        <ele>450.17</ele>
        <time>2015-04-30T11:19:13Z</time>
      </trkpt>
      <trkpt lat="43.73833" lon="3.49837">
        <ele>449.69</ele>
        <time>2015-04-30T11:19:28Z</time>
      </trkpt>
      <trkpt lat="43.73818" lon="3.4982">
        <ele>446.61</ele>
        <time>2015-04-30T11:19:44Z</time>
      </trkpt>
      <trkpt lat="43.738" lon="3.49815">
        <ele>447.77</ele>
        <time>2015-04-30T11:19:58Z</time>
      </trkpt>
      <trkpt lat="43.73782" lon="3.49807">
        <ele>449.93</ele>
        <time>2015-04-30T11:20:10Z</time>
      </trkpt>
      <trkpt lat="43.73764" lon="3.49798">
        <ele>450.61</ele>
        <time>2015-04-30T11:20:23Z</time>
      </trkpt>
      <trkpt lat="43.73751" lon="3.49779">
        <ele>452.58</ele>
        <time>2015-04-30T11:20:39Z</time>
      </trkpt>
      <trkpt lat="43.7374" lon="3.49758">
        <ele>448.8</ele>
        <time>2015-04-30T11:20:56Z</time>
      </trkpt>
      <trkpt lat="43.73725" lon="3.49742">
        <ele>450.23</ele>
        <time>2015-04-30T11:21:10Z</time>
      </trkpt>
      <trkpt lat="43.7371" lon="3.49728">
        <ele>448.49</ele>
        <time>2015-04-30T11:21:28Z</time>
      </trkpt>
      <trkpt lat="43.73697" lon="3.4971">
        <ele>448.98</ele>
        <time>2015-04-30T11:21:40Z</time>
      </trkpt>
      <trkpt lat="43.73684" lon="3.49693">
        <ele>448.2</ele>
        <time>2015-04-30T11:21:55Z</time>
      </trkpt>
      <trkpt lat="43.7367" lon="3.49677">
        <ele>448.07</ele>
        <time>2015-04-30T11:22:10Z</time>
      </trkpt>
      <trkpt lat="43.73654" lon="3.49665">
        <ele>447.73</ele>
        <time>2015-04-30T11:22:22Z</time>
      </trkpt>
      <trkpt lat="43.73636" lon="3.49662">
        <ele>446.72</ele>
        <time>2015-04-30T11:22:35Z</time>
      </trkpt>
      <trkpt lat="43.7362" lon="3.49675">
        <ele>448.87</ele>
        <time>2015-04-30T11:22:51Z</time>
      </trkpt>
      <trkpt lat="43.73603" lon="3.49681">
        <ele>445.63</ele>
        <time>2015-04-30T11:23:04Z</time>
      </trkpt>
      <trkpt lat="43.73585" lon="3.49684">
        <ele>438.95</ele>
        <time>2015-04-30T11:23:21Z</time>
      </trkpt>
      <trkpt lat="43.73567" lon="3.49671">
        <ele>444.92</ele>
        <time>2015-04-30T11:23:34Z</time>
      </trkpt>
      <trkpt lat="43.73552" lon="3.49657">
        <ele>444.56</ele>
        <time>2015-04-30T11:23:47Z</time>
      </trkpt>
      <trkpt lat="43.73536" lon="3.49644">
        <ele>441.72</ele>
        <time>2015-04-30T11:24:06Z</time>
      </trkpt>
      <trkpt lat="43.73522" lon="3.49626">
        <ele>434.44</ele>
        <time>2015-04-30T11:24:25Z</time>
      </trkpt>
      <trkpt lat="43.73508" lon="3.49609">
        <ele>435.44</ele>
        <time>2015-04-30T11:24:40Z</time>
      </trkpt>
      <trkpt lat="43.73493" lon="3.49594">
        <ele>436.85</ele>
        <time>2015-04-30T11:24:53Z</time>
      </trkpt>
      <trkpt lat="43.73476" lon="3.49582">
        <ele>438.49</ele>
        <time>2015-04-30T11:25:04Z</time>
      </trkpt>
      <trkpt lat="43.73459" lon="3.49572">
        <ele>442.9</ele>
        <time>2015-04-30T11:25:14Z</time>
      </trkpt>
      <trkpt lat="43.73442" lon="3.4956">
        <ele>441.95</ele>
        <time>2015-04-30T11:25:27Z</time>
      </trkpt>
      <trkpt lat="43.73424" lon="3.4955">
        <ele>438.67</ele>
        <time>2015-04-30T11:25:43Z</time>
      </trkpt>
      <trkpt lat="43.73407" lon="3.49542">
        <ele>440.22</ele>
        <time>2015-04-30T11:25:59Z</time>
      </trkpt>
      <trkpt lat="43.73391" lon="3.4953">
        <ele>439.78</ele>
        <time>2015-04-30T11:26:13Z</time>
      </trkpt>
      <trkpt lat="43.73373" lon="3.49523">
        <ele>437.62</ele>
        <time>2015-04-30T11:26:28Z</time>
      </trkpt>
      <trkpt lat="43.73356" lon="3.49512">
        <ele>431.02</ele>
        <time>2015-04-30T11:26:47Z</time>
      </trkpt>
      <trkpt lat="43.73347" lon="3.4949">
        <ele>426.01</ele>
        <time>2015-04-30T11:27:09Z</time>
      </trkpt>
      <trkpt lat="43.73338" lon="3.49468">
        <ele>420.88</ele>
        <time>2015-04-30T11:27:25Z</time>
      </trkpt>
      <trkpt lat="43.73326" lon="3.49449">
        <ele>418.27</ele>
        <time>2015-04-30T11:27:38Z</time>
      </trkpt>
      <trkpt lat="43.73311" lon="3.49434">
        <ele>417.16</ele>
        <time>2015-04-30T11:27:53Z</time>
      </trkpt>
      <trkpt lat="43.73295" lon="3.49421">
        <ele>419.94</ele>
        <time>2015-04-30T11:28:06Z</time>
      </trkpt>
      <trkpt lat="43.73278" lon="3.49408">
        <ele>420.46</ele>
        <time>2015-04-30T11:28:19Z</time>
      </trkpt>
      <trkpt lat="43.73261" lon="3.494">
        <ele>420.39</ele>
        <time>2015-04-30T11:28:33Z</time>
      </trkpt>
      <trkpt lat="43.73243" lon="3.4939">
        <ele>420.58</ele>
        <time>2015-04-30T11:28:48Z</time>
      </trkpt>
      <trkpt lat="43.73226" lon="3.49378">
        <ele>422.68</ele>
        <time>2015-04-30T11:29:03Z</time>
      </trkpt>
      <trkpt lat="43.7321" lon="3.49366">
        <ele>421.3</ele>
        <time>2015-04-30T11:29:17Z</time>
      </trkpt>
      <trkpt lat="43.73193" lon="3.49353">
        <ele>423.44</ele>
        <time>2015-04-30T11:29:29Z</time>
      </trkpt>
      <trkpt lat="43.73175" lon="3.49345">
        <ele>415.76</ele>
        <time>2015-04-30T11:29:46Z</time>
      </trkpt>
      <trkpt lat="43.73158" lon="3.49337">
        <ele>413.67</ele>
        <time>2015-04-30T11:30:01Z</time>
      </trkpt>
      <trkpt lat="43.7314" lon="3.49326">
        <ele>412.81</ele>
        <time>2015-04-30T11:30:14Z</time>
      </trkpt>
      <trkpt lat="43.73122" lon="3.4932">
        <ele>411.85</ele>
        <time>2015-04-30T11:30:28Z</time>
      </trkpt>
      <trkpt lat="43.73105" lon="3.49308">
        <ele>405.54</ele>
        <time>2015-04-30T11:30:49Z</time>
      </trkpt>
      <trkpt lat="43.73087" lon="3.49308">
        <ele>404.59</ele>
        <time>2015-04-30T11:31:03Z</time>
      </trkpt>
      <trkpt lat="43.73071" lon="3.4932">
        <ele>401.47</ele>
        <time>2015-04-30T11:31:19Z</time>
      </trkpt>
      <trkpt lat="43.73053" lon="3.49313">
        <ele>402.18</ele>
        <time>2015-04-30T11:31:34Z</time>
      </trkpt>
      <trkpt lat="43.73035" lon="3.49304">
        <ele>407.03</ele>
        <time>2015-04-30T11:31:47Z</time>
      </trkpt>
      <trkpt lat="43.73018" lon="3.49298">
        <ele>407.32</ele>
        <time>2015-04-30T11:32:00Z</time>
      </trkpt>
      <trkpt lat="43.73001" lon="3.4931">
        <ele>393.76</ele>
        <time>2015-04-30T11:32:19Z</time>
      </trkpt>
      <trkpt lat="43.72984" lon="3.4932">
        <ele>396.87</ele>
        <time>2015-04-30T11:32:34Z</time>
      </trkpt>
      <trkpt lat="43.72968" lon="3.49332">
        <ele>394.8</ele>
        <time>2015-04-30T11:32:49Z</time>
      </trkpt>
      <trkpt lat="43.72951" lon="3.49344">
        <ele>393.21</ele>
        <time>2015-04-30T11:33:11Z</time>
      </trkpt>
      <trkpt lat="43.72936" lon="3.49358">
        <ele>388.52</ele>
        <time>2015-04-30T11:33:24Z</time>
      </trkpt>
      <trkpt lat="43.72917" lon="3.49364">
        <ele>389.34</ele>
        <time>2015-04-30T11:33:38Z</time>
      </trkpt>
      <trkpt lat="43.729" lon="3.49375">
        <ele>388.74</ele>
        <time>2015-04-30T11:33:56Z</time>
      </trkpt>
      <trkpt lat="43.72886" lon="3.49391">
        <ele>388.38</ele>
        <time>2015-04-30T11:34:15Z</time>
      </trkpt>
      <trkpt lat="43.7287" lon="3.49406">
        <ele>392.44</ele>
        <time>2015-04-30T11:35:03Z</time>
      </trkpt>
      <trkpt lat="43.72853" lon="3.49417">
        <ele>390.81</ele>
        <time>2015-04-30T11:35:25Z</time>
      </trkpt>
      <trkpt lat="43.72834" lon="3.49414">
        <ele>391.54</ele>
        <time>2015-04-30T11:35:40Z</time>
      </trkpt>
      <trkpt lat="43.72815" lon="3.49415">
        <ele>395.02</ele>
        <time>2015-04-30T11:35:53Z</time>
      </trkpt>
      <trkpt lat="43.72797" lon="3.49418">
        <ele>396.39</ele>
        <time>2015-04-30T11:36:06Z</time>
      </trkpt>
      <trkpt lat="43.72778" lon="3.49425">
        <ele>394.22</ele>
        <time>2015-04-30T11:36:20Z</time>
      </trkpt>
      <trkpt lat="43.72763" lon="3.49439">
        <ele>388.82</ele>
        <time>2015-04-30T11:36:42Z</time>
      </trkpt>
      <trkpt lat="43.72751" lon="3.49457">
        <ele>389.66</ele>
        <time>2015-04-30T11:36:52Z</time>
      </trkpt>
      <trkpt lat="43.72746" lon="3.49482">
        <ele>387.35</ele>
        <time>2015-04-30T11:37:09Z</time>
      </trkpt>
      <trkpt lat="43.72747" lon="3.49508">
        <ele>389.16</ele>
        <time>2015-04-30T11:37:22Z</time>
      </trkpt>
      <trkpt lat="43.7275" lon="3.49533">
        <ele>386.63</ele>
        <time>2015-04-30T11:37:38Z</time>
      </trkpt>
      <trkpt lat="43.72751" lon="3.49559">
        <ele>382.88</ele>
        <time>2015-04-30T11:38:23Z</time>
      </trkpt>
      <trkpt lat="43.72756" lon="3.49583">
        <ele>384.65</ele>
        <time>2015-04-30T11:38:35Z</time>
      </trkpt>
      <trkpt lat="43.72764" lon="3.49607">
        <ele>387.25</ele>
        <time>2015-04-30T11:38:48Z</time>
      </trkpt>
      <trkpt lat="43.72775" lon="3.49627">
        <ele>395.62</ele>
        <time>2015-04-30T11:38:59Z</time>
      </trkpt>
      <trkpt lat="43.7279" lon="3.49644">
        <ele>391.38</ele>
        <time>2015-04-30T11:39:13Z</time>
      </trkpt>
      <trkpt lat="43.72801" lon="3.49666">
        <ele>389.76</ele>
        <time>2015-04-30T11:39:26Z</time>
      </trkpt>
      <trkpt lat="43.72809" lon="3.49689">
        <ele>390.08</ele>
        <time>2015-04-30T11:39:36Z</time>
      </trkpt>
      <trkpt lat="43.72824" lon="3.49704">
        <ele>385.02</ele>
        <time>2015-04-30T11:39:52Z</time>
      </trkpt>
      <trkpt lat="43.72841" lon="3.49715">
        <ele>389.3</ele>
        <time>2015-04-30T11:40:06Z</time>
      </trkpt>
      <trkpt lat="43.72858" lon="3.49725">
        <ele>392.69</ele>
        <time>2015-04-30T11:40:20Z</time>
      </trkpt>
      <trkpt lat="43.72875" lon="3.49732">
        <ele>389.87</ele>
        <time>2015-04-30T11:40:33Z</time>
      </trkpt>
      <trkpt lat="43.7289" lon="3.49749">
        <ele>386.97</ele>
        <time>2015-04-30T11:40:47Z</time>
      </trkpt>
      <trkpt lat="43.72902" lon="3.49767">
        <ele>387.25</ele>
        <time>2015-04-30T11:40:59Z</time>
      </trkpt>
      <trkpt lat="43.72916" lon="3.49785">
        <ele>385.64</ele>
        <time>2015-04-30T11:41:13Z</time>
      </trkpt>
      <trkpt lat="43.7293" lon="3.49801">
        <ele>384.36</ele>
        <time>2015-04-30T11:41:27Z</time>
      </trkpt>
      <trkpt lat="43.72949" lon="3.49805">
        <ele>384.65</ele>
        <time>2015-04-30T11:41:41Z</time>
      </trkpt>
      <trkpt lat="43.72967" lon="3.49804">
        <ele>385.66</ele>
        <time>2015-04-30T11:41:55Z</time>
      </trkpt>
      <trkpt lat="43.72983" lon="3.49792">
        <ele>385.68</ele>
        <time>2015-04-30T11:42:11Z</time>
      </trkpt>
      <trkpt lat="43.72998" lon="3.49779">
        <ele>377.93</ele>
        <time>2015-04-30T11:42:29Z</time>
      </trkpt>
      <trkpt lat="43.73015" lon="3.49789">
        <ele>383.91</ele>
        <time>2015-04-30T11:42:44Z</time>
      </trkpt>
      <trkpt lat="43.73028" lon="3.49809">
        <ele>388.09</ele>
        <time>2015-04-30T11:42:59Z</time>
      </trkpt>
      <trkpt lat="43.73037" lon="3.4983">
        <ele>389.47</ele>
        <time>2015-04-30T11:43:15Z</time>
      </trkpt>
      <trkpt lat="43.73051" lon="3.49848">
        <ele>393.72</ele>
        <time>2015-04-30T11:43:28Z</time>
      </trkpt>
      <trkpt lat="43.73069" lon="3.49856">
        <ele>390.12</ele>
        <time>2015-04-30T11:43:48Z</time>
      </trkpt>
      <trkpt lat="43.73085" lon="3.49868">
        <ele>392.89</ele>
        <time>2015-04-30T11:44:03Z</time>
      </trkpt>
      <trkpt lat="43.73099" lon="3.49884">
        <ele>394.99</ele>
        <time>2015-04-30T11:44:19Z</time>
      </trkpt>
      <trkpt lat="43.73112" lon="3.49901">
        <ele>397.02</ele>
        <time>2015-04-30T11:44:33Z</time>
      </trkpt>
      <trkpt lat="43.73128" lon="3.49914">
        <ele>392.94</ele>
        <time>2015-04-30T11:44:49Z</time>
      </trkpt>
      <trkpt lat="43.73146" lon="3.49918">
        <ele>390.4</ele>
        <time>2015-04-30T11:45:04Z</time>
      </trkpt>
      <trkpt lat="43.73165" lon="3.49919">
        <ele>388.84</ele>
        <time>2015-04-30T11:45:21Z</time>
      </trkpt>
      <trkpt lat="43.73183" lon="3.49911">
        <ele>391.69</ele>
        <time>2015-04-30T11:45:38Z</time>
      </trkpt>
      <trkpt lat="43.73202" lon="3.49914">
        <ele>393.47</ele>
        <time>2015-04-30T11:45:56Z</time>
      </trkpt>
      <trkpt lat="43.73217" lon="3.49929">
        <ele>395.67</ele>
        <time>2015-04-30T11:46:11Z</time>
      </trkpt>
      <trkpt lat="43.73234" lon="3.49936">
        <ele>394.1</ele>
        <time>2015-04-30T11:46:26Z</time>
      </trkpt>
      <trkpt lat="43.7325" lon="3.49946">
        <ele>401.08</ele>
        <time>2015-04-30T11:46:41Z</time>
      </trkpt>
      <trkpt lat="43.73267" lon="3.49958">
        <ele>403.79</ele>
        <time>2015-04-30T11:46:55Z</time>
      </trkpt>
      <trkpt lat="43.73286" lon="3.49965">
        <ele>414.95</ele>
        <time>2015-04-30T11:47:09Z</time>
      </trkpt>
      <trkpt lat="43.73305" lon="3.4997">
        <ele>406.61</ele>
        <time>2015-04-30T11:47:25Z</time>
      </trkpt>
      <trkpt lat="43.73307" lon="3.49994">
        <ele>406.69</ele>
        <time>2015-04-30T11:47:44Z</time>
      </trkpt>
      <trkpt lat="43.73293" lon="3.5001">
        <ele>404.7</ele>
        <time>2015-04-30T11:48:00Z</time>
      </trkpt>
      <trkpt lat="43.73276" lon="3.50023">
        <ele>405.61</ele>
        <time>2015-04-30T11:48:14Z</time>
      </trkpt>
      <trkpt lat="43.7326" lon="3.50036">
        <ele>403.69</ele>
        <time>2015-04-30T11:48:33Z</time>
      </trkpt>
      <trkpt lat="43.73246" lon="3.50052">
        <ele>405.57</ele>
        <time>2015-04-30T11:48:53Z</time>
      </trkpt>
      <trkpt lat="43.7323" lon="3.50067">
        <ele>407.55</ele>
        <time>2015-04-30T11:49:05Z</time>
      </trkpt>
      <trkpt lat="43.73215" lon="3.50085">
        <ele>408.57</ele>
        <time>2015-04-30T11:49:15Z</time>
      </trkpt>
      <trkpt lat="43.73199" lon="3.50102">
        <ele>404.18</ele>
        <time>2015-04-30T11:49:25Z</time>
      </trkpt>
      <trkpt lat="43.73186" lon="3.5012">
        <ele>401.07</ele>
        <time>2015-04-30T11:49:36Z</time>
      </trkpt>
      <trkpt lat="43.73171" lon="3.50136">
        <ele>402.53</ele>
        <time>2015-04-30T11:49:49Z</time>
      </trkpt>
      <trkpt lat="43.7316" lon="3.50157">
        <ele>402.75</ele>
        <time>2015-04-30T11:50:04Z</time>
      </trkpt>
      <trkpt lat="43.73151" lon="3.5018">
        <ele>402</ele>
        <time>2015-04-30T11:50:24Z</time>
      </trkpt>
      <trkpt lat="43.73143" lon="3.50204">
        <ele>405.1</ele>
        <time>2015-04-30T11:50:38Z</time>
      </trkpt>
      <trkpt lat="43.73139" lon="3.50228">
        <ele>410.38</ele>
        <time>2015-04-30T11:50:52Z</time>
      </trkpt>
      <trkpt lat="43.73143" lon="3.50253">
        <ele>405.92</ele>
        <time>2015-04-30T11:51:26Z</time>
      </trkpt>
      <trkpt lat="43.73151" lon="3.50276">
        <ele>413.15</ele>
        <time>2015-04-30T11:59:50Z</time>
      </trkpt>
      <trkpt lat="43.73162" lon="3.50298">
        <ele>408.82</ele>
        <time>2015-04-30T12:00:09Z</time>
      </trkpt>
      <trkpt lat="43.73171" lon="3.50319">
        <ele>409.38</ele>
        <time>2015-04-30T12:00:25Z</time>
      </trkpt>
      <trkpt lat="43.73182" lon="3.50341">
        <ele>407.26</ele>
        <time>2015-04-30T12:00:40Z</time>
      </trkpt>
      <trkpt lat="43.73188" lon="3.50364">
        <ele>403.79</ele>
        <time>2015-04-30T12:00:55Z</time>
      </trkpt>
      <trkpt lat="43.73186" lon="3.5039">
        <ele>398.68</ele>
        <time>2015-04-30T12:01:10Z</time>
      </trkpt>
      <trkpt lat="43.73186" lon="3.50415">
        <ele>398.47</ele>
        <time>2015-04-30T12:01:25Z</time>
      </trkpt>
      <trkpt lat="43.73192" lon="3.5044">
        <ele>395.89</ele>
        <time>2015-04-30T12:01:41Z</time>
      </trkpt>
      <trkpt lat="43.73193" lon="3.50467">
        <ele>398.53</ele>
        <time>2015-04-30T12:01:59Z</time>
      </trkpt>
      <trkpt lat="43.73193" lon="3.50492">
        <ele>395.45</ele>
        <time>2015-04-30T12:02:14Z</time>
      </trkpt>
      <trkpt lat="43.73198" lon="3.50516">
        <ele>393.55</ele>
        <time>2015-04-30T12:02:27Z</time>
      </trkpt>
      <trkpt lat="43.73205" lon="3.5054">
        <ele>392.27</ele>
        <time>2015-04-30T12:02:42Z</time>
      </trkpt>
      <trkpt lat="43.73212" lon="3.50564">
        <ele>388.74</ele>
        <time>2015-04-30T12:02:56Z</time>
      </trkpt>
      <trkpt lat="43.73226" lon="3.5058">
        <ele>389.94</ele>
        <time>2015-04-30T12:03:10Z</time>
      </trkpt>
      <trkpt lat="43.73246" lon="3.50583">
        <ele>397.24</ele>
        <time>2015-04-30T12:03:24Z</time>
      </trkpt>
      <trkpt lat="43.73265" lon="3.50581">
        <ele>394.45</ele>
        <time>2015-04-30T12:03:37Z</time>
      </trkpt>
      <trkpt lat="43.73283" lon="3.50581">
        <ele>389.6</ele>
        <time>2015-04-30T12:03:52Z</time>
      </trkpt>
      <trkpt lat="43.73298" lon="3.50596">
        <ele>390.39</ele>
        <time>2015-04-30T12:04:06Z</time>
      </trkpt>
      <trkpt lat="43.73309" lon="3.50617">
        <ele>389.32</ele>
        <time>2015-04-30T12:04:19Z</time>
      </trkpt>
      <trkpt lat="43.73321" lon="3.50636">
        <ele>389.06</ele>
        <time>2015-04-30T12:04:33Z</time>
      </trkpt>
      <trkpt lat="43.73338" lon="3.50651">
        <ele>385.83</ele>
        <time>2015-04-30T12:04:49Z</time>
      </trkpt>
      <trkpt lat="43.73354" lon="3.50662">
        <ele>385.4</ele>
        <time>2015-04-30T12:05:04Z</time>
      </trkpt>
      <trkpt lat="43.73371" lon="3.50674">
        <ele>389.61</ele>
        <time>2015-04-30T12:05:18Z</time>
      </trkpt>
      <trkpt lat="43.73389" lon="3.50683">
        <ele>383.96</ele>
        <time>2015-04-30T12:05:33Z</time>
      </trkpt>
      <trkpt lat="43.73407" lon="3.50683">
        <ele>392.29</ele>
        <time>2015-04-30T12:05:46Z</time>
      </trkpt>
      <trkpt lat="43.73392" lon="3.50697">
        <ele>381.17</ele>
        <time>2015-04-30T12:06:14Z</time>
      </trkpt>
      <trkpt lat="43.73374" lon="3.50693">
        <ele>378.05</ele>
        <time>2015-04-30T12:06:31Z</time>
      </trkpt>
      <trkpt lat="43.73355" lon="3.50687">
        <ele>377.16</ele>
        <time>2015-04-30T12:06:45Z</time>
      </trkpt>
      <trkpt lat="43.73338" lon="3.50678">
        <ele>378.78</ele>
        <time>2015-04-30T12:06:58Z</time>
      </trkpt>
      <trkpt lat="43.73321" lon="3.50671">
        <ele>377.13</ele>
        <time>2015-04-30T12:07:11Z</time>
      </trkpt>
      <trkpt lat="43.73303" lon="3.50666">
        <ele>376.72</ele>
        <time>2015-04-30T12:07:27Z</time>
      </trkpt>
      <trkpt lat="43.73287" lon="3.50652">
        <ele>371.67</ele>
        <time>2015-04-30T12:07:42Z</time>
      </trkpt>
      <trkpt lat="43.7327" lon="3.50639">
        <ele>371.79</ele>
        <time>2015-04-30T12:07:55Z</time>
      </trkpt>
      <trkpt lat="43.73252" lon="3.50643">
        <ele>359.39</ele>
        <time>2015-04-30T12:08:15Z</time>
      </trkpt>
      <trkpt lat="43.73234" lon="3.50649">
        <ele>359.58</ele>
        <time>2015-04-30T12:08:32Z</time>
      </trkpt>
      <trkpt lat="43.73215" lon="3.50649">
        <ele>356.43</ele>
        <time>2015-04-30T12:08:48Z</time>
      </trkpt>
      <trkpt lat="43.73197" lon="3.50644">
        <ele>356.68</ele>
        <time>2015-04-30T12:09:02Z</time>
      </trkpt>
      <trkpt lat="43.73178" lon="3.50642">
        <ele>356.1</ele>
        <time>2015-04-30T12:09:15Z</time>
      </trkpt>
      <trkpt lat="43.7316" lon="3.50636">
        <ele>358.6</ele>
        <time>2015-04-30T12:09:26Z</time>
      </trkpt>
      <trkpt lat="43.73143" lon="3.50625">
        <ele>352.94</ele>
        <time>2015-04-30T12:09:44Z</time>
      </trkpt>
      <trkpt lat="43.73126" lon="3.50615">
        <ele>355.39</ele>
        <time>2015-04-30T12:09:58Z</time>
      </trkpt>
      <trkpt lat="43.73108" lon="3.5061">
        <ele>352.81</ele>
        <time>2015-04-30T12:10:13Z</time>
      </trkpt>
      <trkpt lat="43.7309" lon="3.50604">
        <ele>346.94</ele>
        <time>2015-04-30T12:10:29Z</time>
      </trkpt>
      <trkpt lat="43.73072" lon="3.50598">
        <ele>349.93</ele>
        <time>2015-04-30T12:10:42Z</time>
      </trkpt>
      <trkpt lat="43.73057" lon="3.50584">
        <ele>346.63</ele>
        <time>2015-04-30T12:10:57Z</time>
      </trkpt>
      <trkpt lat="43.73048" lon="3.50561">
        <ele>339.01</ele>
        <time>2015-04-30T12:11:23Z</time>
      </trkpt>
      <trkpt lat="43.73044" lon="3.50537">
        <ele>338.43</ele>
        <time>2015-04-30T12:11:36Z</time>
      </trkpt>
      <trkpt lat="43.73034" lon="3.50515">
        <ele>335.54</ele>
        <time>2015-04-30T12:11:49Z</time>
      </trkpt>
      <trkpt lat="43.73017" lon="3.50525">
        <ele>332.3</ele>
        <time>2015-04-30T12:12:05Z</time>
      </trkpt>
      <trkpt lat="43.73" lon="3.50532">
        <ele>327.38</ele>
        <time>2015-04-30T12:12:21Z</time>
      </trkpt>
      <trkpt lat="43.72984" lon="3.50548">
        <ele>320.14</ele>
        <time>2015-04-30T12:12:38Z</time>
      </trkpt>
      <trkpt lat="43.72967" lon="3.50554">
        <ele>321.16</ele>
        <time>2015-04-30T12:12:51Z</time>
      </trkpt>
      <trkpt lat="43.72948" lon="3.50553">
        <ele>323.83</ele>
        <time>2015-04-30T12:13:03Z</time>
      </trkpt>
      <trkpt lat="43.7293" lon="3.50557">
        <ele>323.06</ele>
        <time>2015-04-30T12:13:16Z</time>
      </trkpt>
      <trkpt lat="43.72922" lon="3.5058">
        <ele>315</ele>
        <time>2015-04-30T12:14:10Z</time>
      </trkpt>
      <trkpt lat="43.72935" lon="3.506">
        <ele>312.81</ele>
        <time>2015-04-30T12:14:25Z</time>
      </trkpt>
      <trkpt lat="43.7295" lon="3.50614">
        <ele>315.64</ele>
        <time>2015-04-30T12:14:39Z</time>
      </trkpt>
      <trkpt lat="43.72961" lon="3.50635">
        <ele>311.73</ele>
        <time>2015-04-30T12:14:54Z</time>
      </trkpt>
      <trkpt lat="43.7297" lon="3.50657">
        <ele>306.26</ele>
        <time>2015-04-30T12:15:10Z</time>
      </trkpt>
      <trkpt lat="43.72974" lon="3.50682">
        <ele>304.78</ele>
        <time>2015-04-30T12:15:26Z</time>
      </trkpt>
      <trkpt lat="43.7296" lon="3.50667">
        <ele>306.68</ele>
        <time>2015-04-30T12:21:46Z</time>
      </trkpt>
      <trkpt lat="43.72941" lon="3.50663">
        <ele>306.48</ele>
        <time>2015-04-30T12:22:05Z</time>
      </trkpt>
      <trkpt lat="43.72923" lon="3.50667">
        <ele>305.34</ele>
        <time>2015-04-30T12:22:20Z</time>
      </trkpt>
      <trkpt lat="43.72906" lon="3.50658">
        <ele>300.14</ele>
        <time>2015-04-30T12:22:35Z</time>
      </trkpt>
      <trkpt lat="43.72891" lon="3.50643">
        <ele>298.46</ele>
        <time>2015-04-30T12:22:50Z</time>
      </trkpt>
      <trkpt lat="43.72876" lon="3.50629">
        <ele>297.64</ele>
        <time>2015-04-30T12:23:05Z</time>
      </trkpt>
      <trkpt lat="43.72859" lon="3.50617">
        <ele>295.44</ele>
        <time>2015-04-30T12:23:20Z</time>
      </trkpt>
      <trkpt lat="43.72842" lon="3.50623">
        <ele>302.3</ele>
        <time>2015-04-30T12:23:42Z</time>
      </trkpt>
      <trkpt lat="43.72826" lon="3.5061">
        <ele>304.75</ele>
        <time>2015-04-30T12:23:55Z</time>
      </trkpt>
      <trkpt lat="43.72811" lon="3.50592">
        <ele>302.57</ele>
        <time>2015-04-30T12:24:08Z</time>
      </trkpt>
      <trkpt lat="43.72796" lon="3.50577">
        <ele>299.26</ele>
        <time>2015-04-30T12:24:22Z</time>
      </trkpt>
      <trkpt lat="43.7278" lon="3.50566">
        <ele>298.43</ele>
        <time>2015-04-30T12:24:37Z</time>
      </trkpt>
      <trkpt lat="43.72765" lon="3.50552">
        <ele>296.92</ele>
        <time>2015-04-30T12:24:53Z</time>
      </trkpt>
      <trkpt lat="43.72755" lon="3.50531">
        <ele>297.32</ele>
        <time>2015-04-30T12:25:09Z</time>
      </trkpt>
      <trkpt lat="43.72742" lon="3.50513">
        <ele>291.76</ele>
        <time>2015-04-30T12:25:27Z</time>
      </trkpt>
      <trkpt lat="43.72732" lon="3.50493">
        <ele>292.18</ele>
        <time>2015-04-30T12:25:41Z</time>
      </trkpt>
      <trkpt lat="43.72719" lon="3.50475">
        <ele>297.35</ele>
        <time>2015-04-30T12:25:55Z</time>
      </trkpt>
      <trkpt lat="43.72705" lon="3.50458">
        <ele>294.23</ele>
        <time>2015-04-30T12:26:12Z</time>
      </trkpt>
      <trkpt lat="43.72687" lon="3.50448">
        <ele>289.46</ele>
        <time>2015-04-30T12:26:30Z</time>
      </trkpt>
      <trkpt lat="43.72674" lon="3.50431">
        <ele>291.61</ele>
        <time>2015-04-30T12:26:44Z</time>
      </trkpt>
      <trkpt lat="43.72657" lon="3.5042">
        <ele>288.95</ele>
        <time>2015-04-30T12:27:01Z</time>
      </trkpt>
      <trkpt lat="43.72647" lon="3.50399">
        <ele>293.41</ele>
        <time>2015-04-30T12:27:19Z</time>
      </trkpt>
      <trkpt lat="43.72636" lon="3.50379">
        <ele>289.24</ele>
        <time>2015-04-30T12:27:46Z</time>
      </trkpt>
      <trkpt lat="43.72622" lon="3.50363">
        <ele>286.39</ele>
        <time>2015-04-30T12:28:29Z</time>
      </trkpt>
      <trkpt lat="43.72631" lon="3.5034">
        <ele>286.5</ele>
        <time>2015-04-30T12:30:34Z</time>
      </trkpt>
      <trkpt lat="43.72627" lon="3.50315">
        <ele>293.34</ele>
        <time>2015-04-30T12:31:07Z</time>
      </trkpt>
      <trkpt lat="43.72614" lon="3.50335">
        <ele>280.78</ele>
        <time>2015-04-30T12:39:13Z</time>
      </trkpt>
      <trkpt lat="43.72618" lon="3.5036">
        <ele>282.48</ele>
        <time>2015-04-30T12:40:06Z</time>
      </trkpt>
      <trkpt lat="43.72602" lon="3.50346">
        <ele>283.62</ele>
        <time>2015-04-30T12:43:01Z</time>
      </trkpt>
      <trkpt lat="43.72588" lon="3.5033">
        <ele>279.91</ele>
        <time>2015-04-30T12:43:30Z</time>
      </trkpt>
      <trkpt lat="43.72571" lon="3.50322">
        <ele>285.32</ele>
        <time>2015-04-30T12:43:53Z</time>
      </trkpt>
      <trkpt lat="43.72554" lon="3.5031">
        <ele>283.2</ele>
        <time>2015-04-30T12:44:09Z</time>
      </trkpt>
      <trkpt lat="43.72542" lon="3.5029">
        <ele>278.82</ele>
        <time>2015-04-30T12:44:27Z</time>
      </trkpt>
      <trkpt lat="43.72535" lon="3.50267">
        <ele>277.43</ele>
        <time>2015-04-30T12:44:51Z</time>
      </trkpt>
      <trkpt lat="43.72526" lon="3.50244">
        <ele>279.93</ele>
        <time>2015-04-30T12:45:32Z</time>
      </trkpt>
      <trkpt lat="43.72514" lon="3.50226">
        <ele>273.43</ele>
        <time>2015-04-30T12:46:19Z</time>
      </trkpt>
      <trkpt lat="43.72496" lon="3.50226">
        <ele>276.72</ele>
        <time>2015-04-30T12:46:40Z</time>
      </trkpt>
      <trkpt lat="43.72478" lon="3.5023">
        <ele>277.89</ele>
        <time>2015-04-30T12:47:06Z</time>
      </trkpt>
      <trkpt lat="43.7246" lon="3.50231">
        <ele>274.39</ele>
        <time>2015-04-30T12:47:32Z</time>
      </trkpt>
      <trkpt lat="43.72442" lon="3.50235">
        <ele>275.98</ele>
        <time>2015-04-30T12:47:51Z</time>
      </trkpt>
      <trkpt lat="43.72424" lon="3.50242">
        <ele>274.88</ele>
        <time>2015-04-30T12:48:19Z</time>
      </trkpt>
      <trkpt lat="43.72407" lon="3.50231">
        <ele>272.34</ele>
        <time>2015-04-30T12:48:35Z</time>
      </trkpt>
      <trkpt lat="43.72391" lon="3.50218">
        <ele>270.93</ele>
        <time>2015-04-30T12:48:53Z</time>
      </trkpt>
      <trkpt lat="43.72375" lon="3.50206">
        <ele>271.64</ele>
        <time>2015-04-30T12:49:14Z</time>
      </trkpt>
      <trkpt lat="43.72356" lon="3.50203">
        <ele>270.18</ele>
        <time>2015-04-30T12:49:37Z</time>
      </trkpt>
      <trkpt lat="43.72339" lon="3.50196">
        <ele>273.65</ele>
        <time>2015-04-30T12:49:53Z</time>
      </trkpt>
      <trkpt lat="43.7232" lon="3.50193">
        <ele>271.45</ele>
        <time>2015-04-30T12:50:11Z</time>
      </trkpt>
      <trkpt lat="43.72301" lon="3.50193">
        <ele>268.79</ele>
        <time>2015-04-30T12:50:32Z</time>
      </trkpt>
      <trkpt lat="43.72284" lon="3.50182">
        <ele>269.69</ele>
        <time>2015-04-30T12:50:47Z</time>
      </trkpt>
      <trkpt lat="43.72266" lon="3.50174">
        <ele>272.81</ele>
        <time>2015-04-30T12:51:04Z</time>
      </trkpt>
      <trkpt lat="43.72248" lon="3.50167">
        <ele>273.65</ele>
        <time>2015-04-30T12:51:20Z</time>
      </trkpt>
      <trkpt lat="43.72229" lon="3.50167">
        <ele>271.69</ele>
        <time>2015-04-30T12:51:37Z</time>
      </trkpt>
      <trkpt lat="43.72216" lon="3.5015">
        <ele>269.24</ele>
        <time>2015-04-30T12:51:56Z</time>
      </trkpt>
      <trkpt lat="43.72203" lon="3.50132">
        <ele>267.76</ele>
        <time>2015-04-30T12:52:18Z</time>
      </trkpt>
      <trkpt lat="43.72191" lon="3.50113">
        <ele>267.78</ele>
        <time>2015-04-30T12:52:44Z</time>
      </trkpt>
      <trkpt lat="43.72175" lon="3.50099">
        <ele>264.79</ele>
        <time>2015-04-30T12:53:10Z</time>
      </trkpt>
      <trkpt lat="43.72162" lon="3.50082">
        <ele>265.45</ele>
        <time>2015-04-30T12:53:48Z</time>
      </trkpt>
      <trkpt lat="43.72153" lon="3.5006">
        <ele>261.68</ele>
        <time>2015-04-30T12:54:14Z</time>
      </trkpt>
      <trkpt lat="43.72143" lon="3.50039">
        <ele>261.62</ele>
        <time>2015-04-30T12:54:30Z</time>
      </trkpt>
      <trkpt lat="43.72131" lon="3.50018">
        <ele>257.87</ele>
        <time>2015-04-30T12:54:45Z</time>
      </trkpt>
      <trkpt lat="43.72124" lon="3.49995">
        <ele>259.2</ele>
        <time>2015-04-30T12:55:01Z</time>
      </trkpt>
      <trkpt lat="43.72114" lon="3.49973">
        <ele>257.44</ele>
        <time>2015-04-30T12:55:15Z</time>
      </trkpt>
      <trkpt lat="43.72097" lon="3.49964">
        <ele>257.26</ele>
        <time>2015-04-30T12:55:33Z</time>
      </trkpt>
      <trkpt lat="43.72079" lon="3.49971">
        <ele>258.5</ele>
        <time>2015-04-30T12:55:56Z</time>
      </trkpt>
      <trkpt lat="43.7206" lon="3.49975">
        <ele>253.23</ele>
        <time>2015-04-30T12:56:14Z</time>
      </trkpt>
      <trkpt lat="43.72042" lon="3.4997">
        <ele>249.6</ele>
        <time>2015-04-30T12:56:34Z</time>
      </trkpt>
      <trkpt lat="43.72025" lon="3.49959">
        <ele>242.58</ele>
        <time>2015-04-30T12:56:54Z</time>
      </trkpt>
      <trkpt lat="43.72009" lon="3.49946">
        <ele>245.95</ele>
        <time>2015-04-30T12:57:11Z</time>
      </trkpt>
      <trkpt lat="43.71992" lon="3.49936">
        <ele>248.69</ele>
        <time>2015-04-30T12:57:33Z</time>
      </trkpt>
      <trkpt lat="43.71974" lon="3.49934">
        <ele>252.94</ele>
        <time>2015-04-30T12:57:52Z</time>
      </trkpt>
      <trkpt lat="43.71959" lon="3.49947">
        <ele>250.26</ele>
        <time>2015-04-30T12:58:15Z</time>
      </trkpt>
      <trkpt lat="43.71945" lon="3.49966">
        <ele>252.3</ele>
        <time>2015-04-30T12:58:30Z</time>
      </trkpt>
      <trkpt lat="43.71938" lon="3.4999">
        <ele>251.18</ele>
        <time>2015-04-30T12:58:48Z</time>
      </trkpt>
      <trkpt lat="43.71933" lon="3.50014">
        <ele>250.87</ele>
        <time>2015-04-30T12:59:09Z</time>
      </trkpt>
      <trkpt lat="43.71924" lon="3.50036">
        <ele>250.41</ele>
        <time>2015-04-30T12:59:27Z</time>
      </trkpt>
      <trkpt lat="43.71923" lon="3.50061">
        <ele>248.77</ele>
        <time>2015-04-30T12:59:43Z</time>
      </trkpt>
      <trkpt lat="43.71918" lon="3.50086">
        <ele>251.65</ele>
        <time>2015-04-30T12:59:57Z</time>
      </trkpt>
      <trkpt lat="43.71902" lon="3.50097">
        <ele>248.76</ele>
        <time>2015-04-30T13:00:11Z</time>
      </trkpt>
      <trkpt lat="43.71884" lon="3.50104">
        <ele>249.95</ele>
        <time>2015-04-30T13:00:30Z</time>
      </trkpt>
      <trkpt lat="43.71866" lon="3.5011">
        <ele>250.18</ele>
        <time>2015-04-30T13:00:43Z</time>
      </trkpt>
      <trkpt lat="43.71851" lon="3.50127">
        <ele>252.01</ele>
        <time>2015-04-30T13:00:56Z</time>
      </trkpt>
      <trkpt lat="43.7184" lon="3.50147">
        <ele>252.06</ele>
        <time>2015-04-30T13:01:10Z</time>
      </trkpt>
      <trkpt lat="43.71821" lon="3.50146">
        <ele>249.41</ele>
        <time>2015-04-30T13:01:41Z</time>
      </trkpt>
      <trkpt lat="43.71814" lon="3.5017">
        <ele>250.66</ele>
        <time>2015-04-30T13:08:07Z</time>
      </trkpt>
      <trkpt lat="43.71799" lon="3.50183">
        <ele>248.29</ele>
        <time>2015-04-30T13:08:27Z</time>
      </trkpt>
      <trkpt lat="43.71781" lon="3.50188">
        <ele>245.06</ele>
        <time>2015-04-30T13:08:47Z</time>
      </trkpt>
      <trkpt lat="43.71765" lon="3.50175">
        <ele>250.09</ele>
        <time>2015-04-30T13:09:02Z</time>
      </trkpt>
      <trkpt lat="43.71755" lon="3.50155">
        <ele>255.28</ele>
        <time>2015-04-30T13:09:21Z</time>
      </trkpt>
      <trkpt lat="43.71742" lon="3.50136">
        <ele>255.79</ele>
        <time>2015-04-30T13:09:39Z</time>
      </trkpt>
      <trkpt lat="43.71724" lon="3.50131">
        <ele>257.63</ele>
        <time>2015-04-30T13:09:57Z</time>
      </trkpt>
      <trkpt lat="43.71707" lon="3.50123">
        <ele>261.18</ele>
        <time>2015-04-30T13:10:13Z</time>
      </trkpt>
      <trkpt lat="43.71691" lon="3.50109">
        <ele>259.8</ele>
        <time>2015-04-30T13:10:31Z</time>
      </trkpt>
      <trkpt lat="43.71676" lon="3.50095">
        <ele>259.69</ele>
        <time>2015-04-30T13:10:45Z</time>
      </trkpt>
      <trkpt lat="43.71659" lon="3.50083">
        <ele>259.83</ele>
        <time>2015-04-30T13:10:59Z</time>
      </trkpt>
      <trkpt lat="43.71642" lon="3.50071">
        <ele>262.18</ele>
        <time>2015-04-30T13:11:12Z</time>
      </trkpt>
      <trkpt lat="43.71627" lon="3.50057">
        <ele>264.81</ele>
        <time>2015-04-30T13:11:25Z</time>
      </trkpt>
      <trkpt lat="43.71612" lon="3.50042">
        <ele>264.7</ele>
        <time>2015-04-30T13:11:42Z</time>
      </trkpt>
      <trkpt lat="43.71598" lon="3.50024">
        <ele>265.18</ele>
        <time>2015-04-30T13:11:59Z</time>
      </trkpt>
      <trkpt lat="43.71588" lon="3.50003">
        <ele>261.39</ele>
        <time>2015-04-30T13:12:15Z</time>
      </trkpt>
      <trkpt lat="43.71584" lon="3.49979">
        <ele>261.22</ele>
        <time>2015-04-30T13:12:30Z</time>
      </trkpt>
      <trkpt lat="43.71581" lon="3.49954">
        <ele>261.65</ele>
        <time>2015-04-30T13:12:44Z</time>
      </trkpt>
      <trkpt lat="43.7157" lon="3.49934">
        <ele>260.65</ele>
        <time>2015-04-30T13:12:57Z</time>
      </trkpt>
      <trkpt lat="43.71563" lon="3.49909">
        <ele>262.44</ele>
        <time>2015-04-30T13:13:11Z</time>
      </trkpt>
      <trkpt lat="43.71556" lon="3.49885">
        <ele>263.69</ele>
        <time>2015-04-30T13:13:25Z</time>
      </trkpt>
      <trkpt lat="43.71539" lon="3.49894">
        <ele>265.43</ele>
        <time>2015-04-30T13:13:46Z</time>
      </trkpt>
      <trkpt lat="43.71523" lon="3.49907">
        <ele>264.7</ele>
        <time>2015-04-30T13:13:59Z</time>
      </trkpt>
      <trkpt lat="43.71505" lon="3.4991">
        <ele>264.92</ele>
        <time>2015-04-30T13:14:15Z</time>
      </trkpt>
      <trkpt lat="43.71488" lon="3.499">
        <ele>264.18</ele>
        <time>2015-04-30T13:14:29Z</time>
      </trkpt>
      <trkpt lat="43.71472" lon="3.49887">
        <ele>266.61</ele>
        <time>2015-04-30T13:14:44Z</time>
      </trkpt>
      <trkpt lat="43.71458" lon="3.4987">
        <ele>271.55</ele>
        <time>2015-04-30T13:14:59Z</time>
      </trkpt>
      <trkpt lat="43.71447" lon="3.4985">
        <ele>274.54</ele>
        <time>2015-04-30T13:15:12Z</time>
      </trkpt>
      <trkpt lat="43.71434" lon="3.49832">
        <ele>275.32</ele>
        <time>2015-04-30T13:15:27Z</time>
      </trkpt>
      <trkpt lat="43.71419" lon="3.49816">
        <ele>276.98</ele>
        <time>2015-04-30T13:15:42Z</time>
      </trkpt>
      <trkpt lat="43.71406" lon="3.49799">
        <ele>277.63</ele>
        <time>2015-04-30T13:15:57Z</time>
      </trkpt>
      <trkpt lat="43.71398" lon="3.49774">
        <ele>280.41</ele>
        <time>2015-04-30T13:16:11Z</time>
      </trkpt>
      <trkpt lat="43.71401" lon="3.49749">
        <ele>279.79</ele>
        <time>2015-04-30T13:16:26Z</time>
      </trkpt>
      <trkpt lat="43.71409" lon="3.49725">
        <ele>278.48</ele>
        <time>2015-04-30T13:16:40Z</time>
      </trkpt>
      <trkpt lat="43.71408" lon="3.49699">
        <ele>281.88</ele>
        <time>2015-04-30T13:16:55Z</time>
      </trkpt>
      <trkpt lat="43.71399" lon="3.49677">
        <ele>284.81</ele>
        <time>2015-04-30T13:17:12Z</time>
      </trkpt>
      <trkpt lat="43.71381" lon="3.49668">
        <ele>286.89</ele>
        <time>2015-04-30T13:17:28Z</time>
      </trkpt>
      <trkpt lat="43.71362" lon="3.49666">
        <ele>287.19</ele>
        <time>2015-04-30T13:17:43Z</time>
      </trkpt>
      <trkpt lat="43.71344" lon="3.49663">
        <ele>290.18</ele>
        <time>2015-04-30T13:18:00Z</time>
      </trkpt>
      <trkpt lat="43.71328" lon="3.4965">
        <ele>292.88</ele>
        <time>2015-04-30T13:18:14Z</time>
      </trkpt>
      <trkpt lat="43.71313" lon="3.49634">
        <ele>295.39</ele>
        <time>2015-04-30T13:18:29Z</time>
      </trkpt>
      <trkpt lat="43.71297" lon="3.49619">
        <ele>294.71</ele>
        <time>2015-04-30T13:18:42Z</time>
      </trkpt>
      <trkpt lat="43.7128" lon="3.49608">
        <ele>293.69</ele>
        <time>2015-04-30T13:18:55Z</time>
      </trkpt>
      <trkpt lat="43.71263" lon="3.49597">
        <ele>292.2</ele>
        <time>2015-04-30T13:19:09Z</time>
      </trkpt>
      <trkpt lat="43.71244" lon="3.49589">
        <ele>292.33</ele>
        <time>2015-04-30T13:19:22Z</time>
      </trkpt>
      <trkpt lat="43.71226" lon="3.49587">
        <ele>288.65</ele>
        <time>2015-04-30T13:19:33Z</time>
      </trkpt>
      <trkpt lat="43.71222" lon="3.49563">
        <ele>286.71</ele>
        <time>2015-04-30T13:19:48Z</time>
      </trkpt>
      <trkpt lat="43.7123" lon="3.49541">
        <ele>287.15</ele>
        <time>2015-04-30T13:20:02Z</time>
      </trkpt>
      <trkpt lat="43.7123" lon="3.49515">
        <ele>285.65</ele>
        <time>2015-04-30T13:20:18Z</time>
      </trkpt>
      <trkpt lat="43.71225" lon="3.49489">
        <ele>287.27</ele>
        <time>2015-04-30T13:20:31Z</time>
      </trkpt>
      <trkpt lat="43.71218" lon="3.49465">
        <ele>289.17</ele>
        <time>2015-04-30T13:20:44Z</time>
      </trkpt>
      <trkpt lat="43.71211" lon="3.49441">
        <ele>288.65</ele>
        <time>2015-04-30T13:21:00Z</time>
      </trkpt>
      <trkpt lat="43.7121" lon="3.49416">
        <ele>289.75</ele>
        <time>2015-04-30T13:21:15Z</time>
      </trkpt>
      <trkpt lat="43.71209" lon="3.4939">
        <ele>293.31</ele>
        <time>2015-04-30T13:21:32Z</time>
      </trkpt>
      <trkpt lat="43.71193" lon="3.49378">
        <ele>293.74</ele>
        <time>2015-04-30T13:21:50Z</time>
      </trkpt>
    </trkseg>
  </trk>
</gpx>